<?xml version="1.0" encoding="UTF-8" standalone="no" ?>
<gpx xmlns="http://www.topografix.com/GPX/1/1" xmlns:xsi="http://www.w3.org/2001/XMLSchema-instance" xsi:schemaLocation="http://www.topografix.com/GPX/1/1 http://www.topografix.com/GPX/1/1/gpx.xsd" version="1.1" creator="VisuGPX - https://www.visugpx.com">
  <metadata>
    <name>Faucompierre</name>
    <desc><![CDATA[Ballade à la forêt St jean]]></desc>
  </metadata>
  <trk>
    <name><![CDATA[Faucompierre]]></name>
    <trkseg>
      <trkpt lat="48.13635" lon="6.67817">
        <ele>501.800018</ele>
        <time>2020-10-12T08:06:59.229Z</time>
      </trkpt>
      <trkpt lat="48.13634" lon="6.67823">
        <ele>501.800018</ele>
        <time>2020-10-12T08:07:09.077Z</time>
      </trkpt>
      <trkpt lat="48.13637" lon="6.67827">
        <ele>501.800018</ele>
        <time>2020-10-12T08:07:14.133Z</time>
      </trkpt>
      <trkpt lat="48.13639" lon="6.6783">
        <ele>501.800018</ele>
        <time>2020-10-12T08:07:19.161Z</time>
      </trkpt>
      <trkpt lat="48.1364" lon="6.67834">
        <ele>501.800018</ele>
        <time>2020-10-12T08:07:24.507Z</time>
      </trkpt>
      <trkpt lat="48.13639" lon="6.6784">
        <ele>499.88681</ele>
        <time>2020-10-12T08:07:30.147Z</time>
      </trkpt>
      <trkpt lat="48.13638" lon="6.67849">
        <ele>500.692627</ele>
        <time>2020-10-12T08:07:36.165Z</time>
      </trkpt>
      <trkpt lat="48.1364" lon="6.67863">
        <ele>501.669342</ele>
        <time>2020-10-12T08:07:46.195Z</time>
      </trkpt>
      <trkpt lat="48.13641" lon="6.67868">
        <ele>502.346344</ele>
        <time>2020-10-12T08:07:51.254Z</time>
      </trkpt>
      <trkpt lat="48.13644" lon="6.67875">
        <ele>503.847046</ele>
        <time>2020-10-12T08:07:56.946Z</time>
      </trkpt>
      <trkpt lat="48.13646" lon="6.67882">
        <ele>505.091553</ele>
        <time>2020-10-12T08:08:02.530Z</time>
      </trkpt>
      <trkpt lat="48.13647" lon="6.67879">
        <ele>505.718353</ele>
        <time>2020-10-12T08:08:08.121Z</time>
      </trkpt>
      <trkpt lat="48.13648" lon="6.67885">
        <ele>506.580811</ele>
        <time>2020-10-12T08:08:13.516Z</time>
      </trkpt>
      <trkpt lat="48.13649" lon="6.67894">
        <ele>506.83136</ele>
        <time>2020-10-12T08:08:18.584Z</time>
      </trkpt>
      <trkpt lat="48.1365" lon="6.67904">
        <ele>506.707214</ele>
        <time>2020-10-12T08:08:23.591Z</time>
      </trkpt>
      <trkpt lat="48.1365" lon="6.67913">
        <ele>507.169159</ele>
        <time>2020-10-12T08:08:28.963Z</time>
      </trkpt>
      <trkpt lat="48.13651" lon="6.67922">
        <ele>508.051727</ele>
        <time>2020-10-12T08:08:34.435Z</time>
      </trkpt>
      <trkpt lat="48.13652" lon="6.67932">
        <ele>509.111938</ele>
        <time>2020-10-12T08:08:39.845Z</time>
      </trkpt>
      <trkpt lat="48.13656" lon="6.67937">
        <ele>511.441437</ele>
        <time>2020-10-12T08:08:45.363Z</time>
      </trkpt>
      <trkpt lat="48.13658" lon="6.67947">
        <ele>513.386047</ele>
        <time>2020-10-12T08:08:50.820Z</time>
      </trkpt>
      <trkpt lat="48.1366" lon="6.67956">
        <ele>514.503052</ele>
        <time>2020-10-12T08:08:56.107Z</time>
      </trkpt>
      <trkpt lat="48.13662" lon="6.67963">
        <ele>515.872375</ele>
        <time>2020-10-12T08:09:01.565Z</time>
      </trkpt>
      <trkpt lat="48.13664" lon="6.67967">
        <ele>516.841553</ele>
        <time>2020-10-12T08:09:07.130Z</time>
      </trkpt>
      <trkpt lat="48.13666" lon="6.67965">
        <ele>515.988403</ele>
        <time>2020-10-12T08:09:25.858Z</time>
      </trkpt>
      <trkpt lat="48.13669" lon="6.6797">
        <ele>515.906921</ele>
        <time>2020-10-12T08:09:31.185Z</time>
      </trkpt>
      <trkpt lat="48.13671" lon="6.67979">
        <ele>516.599976</ele>
        <time>2020-10-12T08:09:37.003Z</time>
      </trkpt>
      <trkpt lat="48.13669" lon="6.67982">
        <ele>517.286133</ele>
        <time>2020-10-12T08:09:42.141Z</time>
      </trkpt>
      <trkpt lat="48.1367" lon="6.67989">
        <ele>517.122925</ele>
        <time>2020-10-12T08:09:48.148Z</time>
      </trkpt>
      <trkpt lat="48.13671" lon="6.67992">
        <ele>517.43335</ele>
        <time>2020-10-12T08:09:53.601Z</time>
      </trkpt>
      <trkpt lat="48.13673" lon="6.67999">
        <ele>519.063843</ele>
        <time>2020-10-12T08:09:58.849Z</time>
      </trkpt>
      <trkpt lat="48.13677" lon="6.68004">
        <ele>520.160034</ele>
        <time>2020-10-12T08:10:03.900Z</time>
      </trkpt>
      <trkpt lat="48.13682" lon="6.6801">
        <ele>521.193665</ele>
        <time>2020-10-12T08:10:09.135Z</time>
      </trkpt>
      <trkpt lat="48.13686" lon="6.6801">
        <ele>521.024597</ele>
        <time>2020-10-12T08:10:14.153Z</time>
      </trkpt>
      <trkpt lat="48.1369" lon="6.68015">
        <ele>520.720093</ele>
        <time>2020-10-12T08:10:19.356Z</time>
      </trkpt>
      <trkpt lat="48.13692" lon="6.68018">
        <ele>520.903625</ele>
        <time>2020-10-12T08:10:24.484Z</time>
      </trkpt>
      <trkpt lat="48.13695" lon="6.68015">
        <ele>521.91748</ele>
        <time>2020-10-12T08:10:30.154Z</time>
      </trkpt>
      <trkpt lat="48.13699" lon="6.68016">
        <ele>521.302612</ele>
        <time>2020-10-12T08:10:40.589Z</time>
      </trkpt>
      <trkpt lat="48.137" lon="6.68017">
        <ele>520.916138</ele>
        <time>2020-10-12T08:10:46.758Z</time>
      </trkpt>
      <trkpt lat="48.13701" lon="6.68019">
        <ele>519.733093</ele>
        <time>2020-10-12T08:10:51.889Z</time>
      </trkpt>
      <trkpt lat="48.13704" lon="6.68013">
        <ele>519.733093</ele>
        <time>2020-10-12T08:10:56.947Z</time>
      </trkpt>
      <trkpt lat="48.13708" lon="6.68009">
        <ele>519.733093</ele>
        <time>2020-10-12T08:11:02.158Z</time>
      </trkpt>
      <trkpt lat="48.13716" lon="6.68004">
        <ele>519.177246</ele>
        <time>2020-10-12T08:11:13.162Z</time>
      </trkpt>
      <trkpt lat="48.13722" lon="6.68005">
        <ele>518.772339</ele>
        <time>2020-10-12T08:11:18.658Z</time>
      </trkpt>
      <trkpt lat="48.13727" lon="6.68008">
        <ele>518.83252</ele>
        <time>2020-10-12T08:11:23.953Z</time>
      </trkpt>
      <trkpt lat="48.13732" lon="6.68007">
        <ele>519.418762</ele>
        <time>2020-10-12T08:11:29.101Z</time>
      </trkpt>
      <trkpt lat="48.13734" lon="6.68004">
        <ele>521.804321</ele>
        <time>2020-10-12T08:11:34.414Z</time>
      </trkpt>
      <trkpt lat="48.1374" lon="6.68004">
        <ele>522.815491</ele>
        <time>2020-10-12T08:11:39.565Z</time>
      </trkpt>
      <trkpt lat="48.13745" lon="6.68004">
        <ele>523.230408</ele>
        <time>2020-10-12T08:11:45.112Z</time>
      </trkpt>
      <trkpt lat="48.13751" lon="6.68003">
        <ele>524.545898</ele>
        <time>2020-10-12T08:11:50.669Z</time>
      </trkpt>
      <trkpt lat="48.13755" lon="6.68002">
        <ele>524.77002</ele>
        <time>2020-10-12T08:11:56.087Z</time>
      </trkpt>
      <trkpt lat="48.1376" lon="6.68002">
        <ele>524.272888</ele>
        <time>2020-10-12T08:12:01.124Z</time>
      </trkpt>
      <trkpt lat="48.13762" lon="6.68001">
        <ele>524.272888</ele>
        <time>2020-10-12T08:12:06.143Z</time>
      </trkpt>
      <trkpt lat="48.13764" lon="6.67996">
        <ele>524.865173</ele>
        <time>2020-10-12T08:12:11.638Z</time>
      </trkpt>
      <trkpt lat="48.13769" lon="6.67995">
        <ele>525.806458</ele>
        <time>2020-10-12T08:12:17.161Z</time>
      </trkpt>
      <trkpt lat="48.13771" lon="6.67994">
        <ele>525.806458</ele>
        <time>2020-10-12T08:12:23.092Z</time>
      </trkpt>
      <trkpt lat="48.13772" lon="6.67994">
        <ele>525.817505</ele>
        <time>2020-10-12T08:12:30.155Z</time>
      </trkpt>
      <trkpt lat="48.13776" lon="6.6799">
        <ele>525.717407</ele>
        <time>2020-10-12T08:12:35.984Z</time>
      </trkpt>
      <trkpt lat="48.13779" lon="6.67988">
        <ele>525.717407</ele>
        <time>2020-10-12T08:12:41.115Z</time>
      </trkpt>
      <trkpt lat="48.1378" lon="6.67986">
        <ele>525.717407</ele>
        <time>2020-10-12T08:12:46.655Z</time>
      </trkpt>
      <trkpt lat="48.13782" lon="6.67985">
        <ele>525.322876</ele>
        <time>2020-10-12T08:12:51.843Z</time>
      </trkpt>
      <trkpt lat="48.13783" lon="6.67983">
        <ele>525.335938</ele>
        <time>2020-10-12T08:12:58.719Z</time>
      </trkpt>
      <trkpt lat="48.13788" lon="6.67974">
        <ele>526.317688</ele>
        <time>2020-10-12T08:13:04.316Z</time>
      </trkpt>
      <trkpt lat="48.13794" lon="6.67966">
        <ele>527.93396</ele>
        <time>2020-10-12T08:13:09.465Z</time>
      </trkpt>
      <trkpt lat="48.13799" lon="6.67958">
        <ele>529.135254</ele>
        <time>2020-10-12T08:13:14.937Z</time>
      </trkpt>
      <trkpt lat="48.13804" lon="6.67951">
        <ele>530.736572</ele>
        <time>2020-10-12T08:13:20.150Z</time>
      </trkpt>
      <trkpt lat="48.13807" lon="6.67948">
        <ele>530.870728</ele>
        <time>2020-10-12T08:13:26.151Z</time>
      </trkpt>
      <trkpt lat="48.13811" lon="6.67945">
        <ele>530.898865</ele>
        <time>2020-10-12T08:13:36.662Z</time>
      </trkpt>
      <trkpt lat="48.13814" lon="6.67937">
        <ele>530.712341</ele>
        <time>2020-10-12T08:13:41.789Z</time>
      </trkpt>
      <trkpt lat="48.13819" lon="6.67931">
        <ele>532.448242</ele>
        <time>2020-10-12T08:13:47.120Z</time>
      </trkpt>
      <trkpt lat="48.13822" lon="6.67925">
        <ele>533.965698</ele>
        <time>2020-10-12T08:13:52.359Z</time>
      </trkpt>
      <trkpt lat="48.13826" lon="6.67921">
        <ele>534.651917</ele>
        <time>2020-10-12T08:13:57.771Z</time>
      </trkpt>
      <trkpt lat="48.13832" lon="6.67922">
        <ele>535.588135</ele>
        <time>2020-10-12T08:14:03.142Z</time>
      </trkpt>
      <trkpt lat="48.13837" lon="6.67925">
        <ele>538.10083</ele>
        <time>2020-10-12T08:14:09.190Z</time>
      </trkpt>
      <trkpt lat="48.13841" lon="6.67929">
        <ele>538.519836</ele>
        <time>2020-10-12T08:14:14.551Z</time>
      </trkpt>
      <trkpt lat="48.13847" lon="6.67934">
        <ele>538.662109</ele>
        <time>2020-10-12T08:14:19.584Z</time>
      </trkpt>
      <trkpt lat="48.1385" lon="6.67938">
        <ele>538.815369</ele>
        <time>2020-10-12T08:14:24.931Z</time>
      </trkpt>
      <trkpt lat="48.13852" lon="6.67946">
        <ele>538.579895</ele>
        <time>2020-10-12T08:14:30.174Z</time>
      </trkpt>
      <trkpt lat="48.13855" lon="6.67955">
        <ele>538.40802</ele>
        <time>2020-10-12T08:14:36.008Z</time>
      </trkpt>
      <trkpt lat="48.13858" lon="6.67963">
        <ele>538.175171</ele>
        <time>2020-10-12T08:14:41.081Z</time>
      </trkpt>
      <trkpt lat="48.13859" lon="6.67971">
        <ele>538.790588</ele>
        <time>2020-10-12T08:14:46.198Z</time>
      </trkpt>
      <trkpt lat="48.1386" lon="6.67981">
        <ele>539.695129</ele>
        <time>2020-10-12T08:14:51.679Z</time>
      </trkpt>
      <trkpt lat="48.1386" lon="6.67985">
        <ele>540.275879</ele>
        <time>2020-10-12T08:14:57.179Z</time>
      </trkpt>
      <trkpt lat="48.13858" lon="6.67991">
        <ele>540.469971</ele>
        <time>2020-10-12T08:15:25.597Z</time>
      </trkpt>
      <trkpt lat="48.13859" lon="6.68001">
        <ele>539.750183</ele>
        <time>2020-10-12T08:15:34.259Z</time>
      </trkpt>
      <trkpt lat="48.1386" lon="6.68008">
        <ele>540.296143</ele>
        <time>2020-10-12T08:15:39.524Z</time>
      </trkpt>
      <trkpt lat="48.13861" lon="6.68016">
        <ele>540.313782</ele>
        <time>2020-10-12T08:15:44.658Z</time>
      </trkpt>
      <trkpt lat="48.13862" lon="6.68023">
        <ele>541.247803</ele>
        <time>2020-10-12T08:15:49.760Z</time>
      </trkpt>
      <trkpt lat="48.13862" lon="6.6803">
        <ele>541.980774</ele>
        <time>2020-10-12T08:15:54.853Z</time>
      </trkpt>
      <trkpt lat="48.13864" lon="6.68038">
        <ele>542.247009</ele>
        <time>2020-10-12T08:15:59.949Z</time>
      </trkpt>
      <trkpt lat="48.13866" lon="6.68045">
        <ele>543.16864</ele>
        <time>2020-10-12T08:16:05.031Z</time>
      </trkpt>
      <trkpt lat="48.13867" lon="6.68053">
        <ele>542.477478</ele>
        <time>2020-10-12T08:16:10.176Z</time>
      </trkpt>
      <trkpt lat="48.13869" lon="6.68059">
        <ele>543.305298</ele>
        <time>2020-10-12T08:16:15.971Z</time>
      </trkpt>
      <trkpt lat="48.13871" lon="6.68067">
        <ele>544.49646</ele>
        <time>2020-10-12T08:16:21.101Z</time>
      </trkpt>
      <trkpt lat="48.13872" lon="6.68076">
        <ele>544.281799</ele>
        <time>2020-10-12T08:16:26.143Z</time>
      </trkpt>
      <trkpt lat="48.13873" lon="6.68083">
        <ele>544.635681</ele>
        <time>2020-10-12T08:16:31.172Z</time>
      </trkpt>
      <trkpt lat="48.13874" lon="6.68092">
        <ele>545.253601</ele>
        <time>2020-10-12T08:16:36.598Z</time>
      </trkpt>
      <trkpt lat="48.13875" lon="6.681">
        <ele>546.109741</ele>
        <time>2020-10-12T08:16:42.410Z</time>
      </trkpt>
      <trkpt lat="48.13876" lon="6.68106">
        <ele>546.303223</ele>
        <time>2020-10-12T08:16:47.759Z</time>
      </trkpt>
      <trkpt lat="48.13878" lon="6.68113">
        <ele>545.411499</ele>
        <time>2020-10-12T08:16:53.233Z</time>
      </trkpt>
      <trkpt lat="48.1388" lon="6.68119">
        <ele>545.11615</ele>
        <time>2020-10-12T08:16:58.959Z</time>
      </trkpt>
      <trkpt lat="48.13883" lon="6.68122">
        <ele>545.463257</ele>
        <time>2020-10-12T08:17:03.983Z</time>
      </trkpt>
      <trkpt lat="48.13887" lon="6.68124">
        <ele>545.938904</ele>
        <time>2020-10-12T08:17:09.727Z</time>
      </trkpt>
      <trkpt lat="48.1389" lon="6.68122">
        <ele>547.010132</ele>
        <time>2020-10-12T08:17:14.737Z</time>
      </trkpt>
      <trkpt lat="48.13892" lon="6.68119">
        <ele>547.747559</ele>
        <time>2020-10-12T08:17:19.746Z</time>
      </trkpt>
      <trkpt lat="48.13895" lon="6.68116">
        <ele>549.540344</ele>
        <time>2020-10-12T08:17:25.184Z</time>
      </trkpt>
      <trkpt lat="48.13894" lon="6.68118">
        <ele>549.540344</ele>
        <time>2020-10-12T08:17:31.115Z</time>
      </trkpt>
      <trkpt lat="48.13893" lon="6.68111">
        <ele>549.407104</ele>
        <time>2020-10-12T08:17:49.186Z</time>
      </trkpt>
      <trkpt lat="48.13894" lon="6.68109">
        <ele>549.407104</ele>
        <time>2020-10-12T08:17:54.979Z</time>
      </trkpt>
      <trkpt lat="48.13895" lon="6.68106">
        <ele>550.662109</ele>
        <time>2020-10-12T08:18:00.004Z</time>
      </trkpt>
      <trkpt lat="48.13895" lon="6.68101">
        <ele>551.272583</ele>
        <time>2020-10-12T08:18:05.566Z</time>
      </trkpt>
      <trkpt lat="48.13896" lon="6.68095">
        <ele>552.264282</ele>
        <time>2020-10-12T08:18:10.965Z</time>
      </trkpt>
      <trkpt lat="48.13897" lon="6.6809">
        <ele>552.627258</ele>
        <time>2020-10-12T08:18:15.994Z</time>
      </trkpt>
      <trkpt lat="48.13898" lon="6.68084">
        <ele>553.226257</ele>
        <time>2020-10-12T08:18:21.204Z</time>
      </trkpt>
      <trkpt lat="48.139" lon="6.68077">
        <ele>553.83728</ele>
        <time>2020-10-12T08:18:26.805Z</time>
      </trkpt>
      <trkpt lat="48.13901" lon="6.6807">
        <ele>554.631104</ele>
        <time>2020-10-12T08:18:32.189Z</time>
      </trkpt>
      <trkpt lat="48.13901" lon="6.68062">
        <ele>555.854919</ele>
        <time>2020-10-12T08:18:37.773Z</time>
      </trkpt>
      <trkpt lat="48.13903" lon="6.68059">
        <ele>555.902344</ele>
        <time>2020-10-12T08:18:43.174Z</time>
      </trkpt>
      <trkpt lat="48.13905" lon="6.68052">
        <ele>555.902344</ele>
        <time>2020-10-12T08:18:53.170Z</time>
      </trkpt>
      <trkpt lat="48.13906" lon="6.68046">
        <ele>555.859253</ele>
        <time>2020-10-12T08:18:58.497Z</time>
      </trkpt>
      <trkpt lat="48.13907" lon="6.6804">
        <ele>555.87915</ele>
        <time>2020-10-12T08:19:03.681Z</time>
      </trkpt>
      <trkpt lat="48.13908" lon="6.68031">
        <ele>557.386719</ele>
        <time>2020-10-12T08:19:08.925Z</time>
      </trkpt>
      <trkpt lat="48.1391" lon="6.68022">
        <ele>556.884583</ele>
        <time>2020-10-12T08:19:14.172Z</time>
      </trkpt>
      <trkpt lat="48.13912" lon="6.68013">
        <ele>557.895813</ele>
        <time>2020-10-12T08:19:19.623Z</time>
      </trkpt>
      <trkpt lat="48.13912" lon="6.68007">
        <ele>558.733826</ele>
        <time>2020-10-12T08:19:25.167Z</time>
      </trkpt>
      <trkpt lat="48.13913" lon="6.68001">
        <ele>559.271179</ele>
        <time>2020-10-12T08:19:30.327Z</time>
      </trkpt>
      <trkpt lat="48.13915" lon="6.67993">
        <ele>559.635376</ele>
        <time>2020-10-12T08:19:35.505Z</time>
      </trkpt>
      <trkpt lat="48.13916" lon="6.67986">
        <ele>560.847473</ele>
        <time>2020-10-12T08:19:40.896Z</time>
      </trkpt>
      <trkpt lat="48.13917" lon="6.67981">
        <ele>562.022339</ele>
        <time>2020-10-12T08:19:46.169Z</time>
      </trkpt>
      <trkpt lat="48.13919" lon="6.67975">
        <ele>564.003052</ele>
        <time>2020-10-12T08:19:51.202Z</time>
      </trkpt>
      <trkpt lat="48.13921" lon="6.67969">
        <ele>565.110046</ele>
        <time>2020-10-12T08:19:56.824Z</time>
      </trkpt>
      <trkpt lat="48.13924" lon="6.67963">
        <ele>565.681824</ele>
        <time>2020-10-12T08:20:02.170Z</time>
      </trkpt>
      <trkpt lat="48.13928" lon="6.67958">
        <ele>565.220459</ele>
        <time>2020-10-12T08:20:07.180Z</time>
      </trkpt>
      <trkpt lat="48.13932" lon="6.67955">
        <ele>565.034668</ele>
        <time>2020-10-12T08:20:12.193Z</time>
      </trkpt>
      <trkpt lat="48.13935" lon="6.67949">
        <ele>565.464966</ele>
        <time>2020-10-12T08:20:17.397Z</time>
      </trkpt>
      <trkpt lat="48.13938" lon="6.67944">
        <ele>566.434326</ele>
        <time>2020-10-12T08:20:22.907Z</time>
      </trkpt>
      <trkpt lat="48.13941" lon="6.6794">
        <ele>567.532532</ele>
        <time>2020-10-12T08:20:28.342Z</time>
      </trkpt>
      <trkpt lat="48.13944" lon="6.67936">
        <ele>568.881165</ele>
        <time>2020-10-12T08:20:33.803Z</time>
      </trkpt>
      <trkpt lat="48.13945" lon="6.67933">
        <ele>568.881165</ele>
        <time>2020-10-12T08:20:39.145Z</time>
      </trkpt>
      <trkpt lat="48.13946" lon="6.67932">
        <ele>568.881165</ele>
        <time>2020-10-12T08:20:47.826Z</time>
      </trkpt>
      <trkpt lat="48.13948" lon="6.67928">
        <ele>569.336609</ele>
        <time>2020-10-12T08:20:53.020Z</time>
      </trkpt>
      <trkpt lat="48.13949" lon="6.67924">
        <ele>569.434814</ele>
        <time>2020-10-12T08:20:58.161Z</time>
      </trkpt>
      <trkpt lat="48.13953" lon="6.67916">
        <ele>569.67334</ele>
        <time>2020-10-12T08:21:08.651Z</time>
      </trkpt>
      <trkpt lat="48.13956" lon="6.67909">
        <ele>569.610168</ele>
        <time>2020-10-12T08:21:14.849Z</time>
      </trkpt>
      <trkpt lat="48.13958" lon="6.67905">
        <ele>570.247742</ele>
        <time>2020-10-12T08:21:20.153Z</time>
      </trkpt>
      <trkpt lat="48.13962" lon="6.67903">
        <ele>571.317078</ele>
        <time>2020-10-12T08:21:25.785Z</time>
      </trkpt>
      <trkpt lat="48.13967" lon="6.67896">
        <ele>571.317078</ele>
        <time>2020-10-12T08:21:30.987Z</time>
      </trkpt>
      <trkpt lat="48.1397" lon="6.67889">
        <ele>571.470093</ele>
        <time>2020-10-12T08:21:36.062Z</time>
      </trkpt>
      <trkpt lat="48.13972" lon="6.67884">
        <ele>572.552856</ele>
        <time>2020-10-12T08:21:41.134Z</time>
      </trkpt>
      <trkpt lat="48.13975" lon="6.67879">
        <ele>572.552856</ele>
        <time>2020-10-12T08:21:46.617Z</time>
      </trkpt>
      <trkpt lat="48.13977" lon="6.67875">
        <ele>572.17688</ele>
        <time>2020-10-12T08:21:52.135Z</time>
      </trkpt>
      <trkpt lat="48.1398" lon="6.6787">
        <ele>572.397644</ele>
        <time>2020-10-12T08:21:57.911Z</time>
      </trkpt>
      <trkpt lat="48.13984" lon="6.67864">
        <ele>571.847595</ele>
        <time>2020-10-12T08:22:03.042Z</time>
      </trkpt>
      <trkpt lat="48.13989" lon="6.67857">
        <ele>573.481567</ele>
        <time>2020-10-12T08:22:08.043Z</time>
      </trkpt>
      <trkpt lat="48.13994" lon="6.67851">
        <ele>573.526917</ele>
        <time>2020-10-12T08:22:13.130Z</time>
      </trkpt>
      <trkpt lat="48.14" lon="6.67844">
        <ele>574.333374</ele>
        <time>2020-10-12T08:22:18.150Z</time>
      </trkpt>
      <trkpt lat="48.14006" lon="6.67837">
        <ele>575.284119</ele>
        <time>2020-10-12T08:22:23.758Z</time>
      </trkpt>
      <trkpt lat="48.1401" lon="6.67831">
        <ele>577.552917</ele>
        <time>2020-10-12T08:22:28.767Z</time>
      </trkpt>
      <trkpt lat="48.14014" lon="6.67825">
        <ele>579.111328</ele>
        <time>2020-10-12T08:22:33.873Z</time>
      </trkpt>
      <trkpt lat="48.14018" lon="6.67817">
        <ele>581.025208</ele>
        <time>2020-10-12T08:22:38.946Z</time>
      </trkpt>
      <trkpt lat="48.14024" lon="6.67808">
        <ele>582.766357</ele>
        <time>2020-10-12T08:22:44.982Z</time>
      </trkpt>
      <trkpt lat="48.14027" lon="6.678">
        <ele>583.535889</ele>
        <time>2020-10-12T08:22:50.165Z</time>
      </trkpt>
      <trkpt lat="48.1403" lon="6.67794">
        <ele>583.68335</ele>
        <time>2020-10-12T08:22:55.848Z</time>
      </trkpt>
      <trkpt lat="48.14032" lon="6.67786">
        <ele>583.548218</ele>
        <time>2020-10-12T08:23:01.143Z</time>
      </trkpt>
      <trkpt lat="48.14035" lon="6.67778">
        <ele>582.412231</ele>
        <time>2020-10-12T08:23:06.500Z</time>
      </trkpt>
      <trkpt lat="48.14039" lon="6.67773">
        <ele>582.209595</ele>
        <time>2020-10-12T08:23:11.818Z</time>
      </trkpt>
      <trkpt lat="48.14042" lon="6.67769">
        <ele>580.864929</ele>
        <time>2020-10-12T08:23:17.177Z</time>
      </trkpt>
      <trkpt lat="48.14043" lon="6.67767">
        <ele>580.786133</ele>
        <time>2020-10-12T08:23:27.540Z</time>
      </trkpt>
      <trkpt lat="48.14049" lon="6.67762">
        <ele>581.342163</ele>
        <time>2020-10-12T08:23:32.757Z</time>
      </trkpt>
      <trkpt lat="48.14055" lon="6.67758">
        <ele>582.869812</ele>
        <time>2020-10-12T08:23:37.969Z</time>
      </trkpt>
      <trkpt lat="48.14061" lon="6.67755">
        <ele>582.513367</ele>
        <time>2020-10-12T08:23:43.156Z</time>
      </trkpt>
      <trkpt lat="48.14068" lon="6.67753">
        <ele>580.958374</ele>
        <time>2020-10-12T08:23:48.514Z</time>
      </trkpt>
      <trkpt lat="48.14073" lon="6.6775">
        <ele>580.13623</ele>
        <time>2020-10-12T08:23:53.969Z</time>
      </trkpt>
      <trkpt lat="48.14077" lon="6.67745">
        <ele>580.49115</ele>
        <time>2020-10-12T08:23:59.033Z</time>
      </trkpt>
      <trkpt lat="48.14081" lon="6.67741">
        <ele>583.192322</ele>
        <time>2020-10-12T08:24:04.121Z</time>
      </trkpt>
      <trkpt lat="48.14083" lon="6.67737">
        <ele>584.009644</ele>
        <time>2020-10-12T08:24:09.351Z</time>
      </trkpt>
      <trkpt lat="48.14087" lon="6.67732">
        <ele>585.515747</ele>
        <time>2020-10-12T08:24:14.502Z</time>
      </trkpt>
      <trkpt lat="48.1409" lon="6.67724">
        <ele>585.656128</ele>
        <time>2020-10-12T08:24:19.764Z</time>
      </trkpt>
      <trkpt lat="48.14093" lon="6.67717">
        <ele>585.883789</ele>
        <time>2020-10-12T08:24:25.106Z</time>
      </trkpt>
      <trkpt lat="48.14094" lon="6.67713">
        <ele>585.025391</ele>
        <time>2020-10-12T08:24:30.576Z</time>
      </trkpt>
      <trkpt lat="48.14097" lon="6.67709">
        <ele>582.338745</ele>
        <time>2020-10-12T08:24:36.004Z</time>
      </trkpt>
      <trkpt lat="48.14099" lon="6.67705">
        <ele>581.128113</ele>
        <time>2020-10-12T08:24:41.107Z</time>
      </trkpt>
      <trkpt lat="48.14102" lon="6.67702">
        <ele>581.042542</ele>
        <time>2020-10-12T08:24:46.455Z</time>
      </trkpt>
      <trkpt lat="48.14105" lon="6.67701">
        <ele>580.850586</ele>
        <time>2020-10-12T08:24:52.131Z</time>
      </trkpt>
      <trkpt lat="48.14108" lon="6.67695">
        <ele>581.897705</ele>
        <time>2020-10-12T08:24:57.524Z</time>
      </trkpt>
      <trkpt lat="48.14109" lon="6.6769">
        <ele>582.752258</ele>
        <time>2020-10-12T08:25:02.709Z</time>
      </trkpt>
      <trkpt lat="48.14111" lon="6.67684">
        <ele>583.258728</ele>
        <time>2020-10-12T08:25:08.101Z</time>
      </trkpt>
      <trkpt lat="48.14114" lon="6.67679">
        <ele>583.72522</ele>
        <time>2020-10-12T08:25:13.525Z</time>
      </trkpt>
      <trkpt lat="48.14115" lon="6.67676">
        <ele>583.878784</ele>
        <time>2020-10-12T08:25:19.139Z</time>
      </trkpt>
      <trkpt lat="48.14117" lon="6.6767">
        <ele>584.26532</ele>
        <time>2020-10-12T08:25:25.056Z</time>
      </trkpt>
      <trkpt lat="48.14118" lon="6.67662">
        <ele>584.447327</ele>
        <time>2020-10-12T08:25:34.602Z</time>
      </trkpt>
      <trkpt lat="48.1412" lon="6.67651">
        <ele>586.627258</ele>
        <time>2020-10-12T08:25:45.128Z</time>
      </trkpt>
      <trkpt lat="48.14122" lon="6.67644">
        <ele>587.576782</ele>
        <time>2020-10-12T08:25:50.599Z</time>
      </trkpt>
      <trkpt lat="48.14124" lon="6.67636">
        <ele>588.097107</ele>
        <time>2020-10-12T08:25:56.151Z</time>
      </trkpt>
      <trkpt lat="48.14126" lon="6.67627">
        <ele>588.371887</ele>
        <time>2020-10-12T08:26:01.552Z</time>
      </trkpt>
      <trkpt lat="48.14128" lon="6.67618">
        <ele>588.628662</ele>
        <time>2020-10-12T08:26:07.019Z</time>
      </trkpt>
      <trkpt lat="48.1413" lon="6.6761">
        <ele>589.564697</ele>
        <time>2020-10-12T08:26:12.168Z</time>
      </trkpt>
      <trkpt lat="48.14133" lon="6.67601">
        <ele>590.834656</ele>
        <time>2020-10-12T08:26:17.235Z</time>
      </trkpt>
      <trkpt lat="48.14136" lon="6.67593">
        <ele>592.494263</ele>
        <time>2020-10-12T08:26:22.638Z</time>
      </trkpt>
      <trkpt lat="48.14138" lon="6.67584">
        <ele>592.8974</ele>
        <time>2020-10-12T08:26:28.128Z</time>
      </trkpt>
      <trkpt lat="48.1414" lon="6.67575">
        <ele>592.795105</ele>
        <time>2020-10-12T08:26:33.565Z</time>
      </trkpt>
      <trkpt lat="48.14141" lon="6.67567">
        <ele>592.488159</ele>
        <time>2020-10-12T08:26:38.843Z</time>
      </trkpt>
      <trkpt lat="48.14142" lon="6.6756">
        <ele>593.27002</ele>
        <time>2020-10-12T08:26:44.654Z</time>
      </trkpt>
      <trkpt lat="48.14142" lon="6.67554">
        <ele>593.504333</ele>
        <time>2020-10-12T08:26:49.783Z</time>
      </trkpt>
      <trkpt lat="48.14144" lon="6.67549">
        <ele>593.124756</ele>
        <time>2020-10-12T08:26:55.161Z</time>
      </trkpt>
      <trkpt lat="48.14145" lon="6.67538">
        <ele>592.95343</ele>
        <time>2020-10-12T08:27:05.716Z</time>
      </trkpt>
      <trkpt lat="48.14146" lon="6.67534">
        <ele>593.985352</ele>
        <time>2020-10-12T08:27:11.062Z</time>
      </trkpt>
      <trkpt lat="48.14147" lon="6.67529">
        <ele>593.847351</ele>
        <time>2020-10-12T08:27:16.560Z</time>
      </trkpt>
      <trkpt lat="48.14149" lon="6.67524">
        <ele>593.627014</ele>
        <time>2020-10-12T08:27:22.132Z</time>
      </trkpt>
      <trkpt lat="48.14151" lon="6.67519">
        <ele>594.075195</ele>
        <time>2020-10-12T08:27:27.524Z</time>
      </trkpt>
      <trkpt lat="48.14152" lon="6.67515">
        <ele>594.075195</ele>
        <time>2020-10-12T08:27:33.132Z</time>
      </trkpt>
      <trkpt lat="48.14152" lon="6.67514">
        <ele>593.820801</ele>
        <time>2020-10-12T08:27:38.179Z</time>
      </trkpt>
      <trkpt lat="48.14153" lon="6.67509">
        <ele>594.247681</ele>
        <time>2020-10-12T08:27:43.187Z</time>
      </trkpt>
      <trkpt lat="48.14158" lon="6.67498">
        <ele>593.812073</ele>
        <time>2020-10-12T08:27:53.543Z</time>
      </trkpt>
      <trkpt lat="48.1416" lon="6.67491">
        <ele>593.959045</ele>
        <time>2020-10-12T08:27:58.896Z</time>
      </trkpt>
      <trkpt lat="48.14162" lon="6.67483">
        <ele>593.787964</ele>
        <time>2020-10-12T08:28:03.998Z</time>
      </trkpt>
      <trkpt lat="48.14164" lon="6.67476">
        <ele>594.750244</ele>
        <time>2020-10-12T08:28:09.342Z</time>
      </trkpt>
      <trkpt lat="48.14166" lon="6.67469">
        <ele>595.735596</ele>
        <time>2020-10-12T08:28:14.714Z</time>
      </trkpt>
      <trkpt lat="48.14168" lon="6.6746">
        <ele>595.812378</ele>
        <time>2020-10-12T08:28:20.175Z</time>
      </trkpt>
      <trkpt lat="48.1417" lon="6.67453">
        <ele>595.359131</ele>
        <time>2020-10-12T08:28:25.604Z</time>
      </trkpt>
      <trkpt lat="48.14171" lon="6.67448">
        <ele>595.454346</ele>
        <time>2020-10-12T08:28:31.165Z</time>
      </trkpt>
      <trkpt lat="48.14174" lon="6.67444">
        <ele>595.636292</ele>
        <time>2020-10-12T08:28:36.214Z</time>
      </trkpt>
      <trkpt lat="48.14178" lon="6.67441">
        <ele>595.562927</ele>
        <time>2020-10-12T08:28:41.577Z</time>
      </trkpt>
      <trkpt lat="48.14182" lon="6.67435">
        <ele>596.239319</ele>
        <time>2020-10-12T08:28:47.125Z</time>
      </trkpt>
      <trkpt lat="48.14186" lon="6.67429">
        <ele>598.06488</ele>
        <time>2020-10-12T08:28:52.542Z</time>
      </trkpt>
      <trkpt lat="48.1419" lon="6.67422">
        <ele>600.02655</ele>
        <time>2020-10-12T08:28:58.156Z</time>
      </trkpt>
      <trkpt lat="48.14194" lon="6.67417">
        <ele>601.150635</ele>
        <time>2020-10-12T08:29:03.579Z</time>
      </trkpt>
      <trkpt lat="48.14199" lon="6.6741">
        <ele>603.548584</ele>
        <time>2020-10-12T08:29:09.159Z</time>
      </trkpt>
      <trkpt lat="48.14203" lon="6.67404">
        <ele>605.867737</ele>
        <time>2020-10-12T08:29:14.182Z</time>
      </trkpt>
      <trkpt lat="48.14208" lon="6.67397">
        <ele>606.881653</ele>
        <time>2020-10-12T08:29:19.454Z</time>
      </trkpt>
      <trkpt lat="48.14211" lon="6.67391">
        <ele>607.060608</ele>
        <time>2020-10-12T08:29:24.700Z</time>
      </trkpt>
      <trkpt lat="48.14214" lon="6.67387">
        <ele>606.993225</ele>
        <time>2020-10-12T08:29:29.903Z</time>
      </trkpt>
      <trkpt lat="48.14218" lon="6.67382">
        <ele>606.173157</ele>
        <time>2020-10-12T08:29:35.136Z</time>
      </trkpt>
      <trkpt lat="48.14226" lon="6.67372">
        <ele>607.082214</ele>
        <time>2020-10-12T08:29:45.488Z</time>
      </trkpt>
      <trkpt lat="48.14229" lon="6.67369">
        <ele>607.130554</ele>
        <time>2020-10-12T08:29:50.933Z</time>
      </trkpt>
      <trkpt lat="48.14232" lon="6.67364">
        <ele>608.146423</ele>
        <time>2020-10-12T08:29:56.151Z</time>
      </trkpt>
      <trkpt lat="48.14235" lon="6.67359">
        <ele>608.689941</ele>
        <time>2020-10-12T08:30:02.096Z</time>
      </trkpt>
      <trkpt lat="48.14239" lon="6.67354">
        <ele>609.375305</ele>
        <time>2020-10-12T08:30:07.153Z</time>
      </trkpt>
      <trkpt lat="48.14243" lon="6.67349">
        <ele>610.183777</ele>
        <time>2020-10-12T08:30:12.221Z</time>
      </trkpt>
      <trkpt lat="48.14246" lon="6.67346">
        <ele>610.183777</ele>
        <time>2020-10-12T08:30:17.668Z</time>
      </trkpt>
      <trkpt lat="48.14249" lon="6.67344">
        <ele>611.003662</ele>
        <time>2020-10-12T08:30:23.158Z</time>
      </trkpt>
      <trkpt lat="48.14253" lon="6.67342">
        <ele>611.40625</ele>
        <time>2020-10-12T08:30:29.165Z</time>
      </trkpt>
      <trkpt lat="48.1426" lon="6.67331">
        <ele>610.53949</ele>
        <time>2020-10-12T08:30:39.907Z</time>
      </trkpt>
      <trkpt lat="48.14264" lon="6.67327">
        <ele>610.53949</ele>
        <time>2020-10-12T08:30:45.110Z</time>
      </trkpt>
      <trkpt lat="48.14267" lon="6.67324">
        <ele>609.230652</ele>
        <time>2020-10-12T08:30:50.131Z</time>
      </trkpt>
      <trkpt lat="48.14271" lon="6.67319">
        <ele>608.81488</ele>
        <time>2020-10-12T08:30:55.166Z</time>
      </trkpt>
      <trkpt lat="48.14276" lon="6.67313">
        <ele>609.422302</ele>
        <time>2020-10-12T08:31:00.171Z</time>
      </trkpt>
      <trkpt lat="48.14282" lon="6.67305">
        <ele>612.181335</ele>
        <time>2020-10-12T08:31:06.024Z</time>
      </trkpt>
      <trkpt lat="48.14288" lon="6.67296">
        <ele>612.053589</ele>
        <time>2020-10-12T08:31:11.051Z</time>
      </trkpt>
      <trkpt lat="48.14293" lon="6.67287">
        <ele>609.709473</ele>
        <time>2020-10-12T08:31:16.186Z</time>
      </trkpt>
      <trkpt lat="48.14297" lon="6.67279">
        <ele>608.196411</ele>
        <time>2020-10-12T08:31:21.191Z</time>
      </trkpt>
      <trkpt lat="48.14306" lon="6.67264">
        <ele>608.305359</ele>
        <time>2020-10-12T08:31:31.445Z</time>
      </trkpt>
      <trkpt lat="48.14311" lon="6.67258">
        <ele>608.716858</ele>
        <time>2020-10-12T08:31:36.619Z</time>
      </trkpt>
      <trkpt lat="48.14314" lon="6.67253">
        <ele>610.124634</ele>
        <time>2020-10-12T08:31:41.652Z</time>
      </trkpt>
      <trkpt lat="48.14316" lon="6.67249">
        <ele>610.592163</ele>
        <time>2020-10-12T08:31:46.981Z</time>
      </trkpt>
      <trkpt lat="48.14318" lon="6.67245">
        <ele>609.196411</ele>
        <time>2020-10-12T08:31:52.537Z</time>
      </trkpt>
      <trkpt lat="48.14321" lon="6.67239">
        <ele>605.807495</ele>
        <time>2020-10-12T08:31:57.766Z</time>
      </trkpt>
      <trkpt lat="48.14323" lon="6.67234">
        <ele>602.734314</ele>
        <time>2020-10-12T08:32:03.108Z</time>
      </trkpt>
      <trkpt lat="48.14325" lon="6.67228">
        <ele>600.054443</ele>
        <time>2020-10-12T08:32:08.325Z</time>
      </trkpt>
      <trkpt lat="48.14327" lon="6.67223">
        <ele>599.496704</ele>
        <time>2020-10-12T08:32:13.650Z</time>
      </trkpt>
      <trkpt lat="48.14329" lon="6.67223">
        <ele>599.302124</ele>
        <time>2020-10-12T08:32:19.960Z</time>
      </trkpt>
      <trkpt lat="48.1433" lon="6.67222">
        <ele>598.654358</ele>
        <time>2020-10-12T08:32:25.174Z</time>
      </trkpt>
      <trkpt lat="48.14333" lon="6.67217">
        <ele>598.096497</ele>
        <time>2020-10-12T08:32:30.198Z</time>
      </trkpt>
      <trkpt lat="48.14335" lon="6.67211">
        <ele>597.123779</ele>
        <time>2020-10-12T08:32:35.664Z</time>
      </trkpt>
      <trkpt lat="48.14338" lon="6.67206">
        <ele>596.101379</ele>
        <time>2020-10-12T08:32:40.878Z</time>
      </trkpt>
      <trkpt lat="48.14341" lon="6.67201">
        <ele>595.554626</ele>
        <time>2020-10-12T08:32:46.038Z</time>
      </trkpt>
      <trkpt lat="48.14343" lon="6.67196">
        <ele>595.616089</ele>
        <time>2020-10-12T08:32:51.157Z</time>
      </trkpt>
      <trkpt lat="48.14345" lon="6.6719">
        <ele>595.497803</ele>
        <time>2020-10-12T08:32:56.369Z</time>
      </trkpt>
      <trkpt lat="48.14347" lon="6.67185">
        <ele>595.038513</ele>
        <time>2020-10-12T08:33:02.004Z</time>
      </trkpt>
      <trkpt lat="48.14349" lon="6.6718">
        <ele>594.632629</ele>
        <time>2020-10-12T08:33:07.171Z</time>
      </trkpt>
      <trkpt lat="48.14351" lon="6.67173">
        <ele>594.674377</ele>
        <time>2020-10-12T08:33:12.619Z</time>
      </trkpt>
      <trkpt lat="48.14353" lon="6.67167">
        <ele>595.397217</ele>
        <time>2020-10-12T08:33:18.120Z</time>
      </trkpt>
      <trkpt lat="48.14355" lon="6.67161">
        <ele>596.733276</ele>
        <time>2020-10-12T08:33:23.168Z</time>
      </trkpt>
      <trkpt lat="48.14356" lon="6.67154">
        <ele>597.487122</ele>
        <time>2020-10-12T08:33:28.179Z</time>
      </trkpt>
      <trkpt lat="48.14356" lon="6.67148">
        <ele>597.487122</ele>
        <time>2020-10-12T08:33:33.185Z</time>
      </trkpt>
      <trkpt lat="48.14356" lon="6.67142">
        <ele>597.482544</ele>
        <time>2020-10-12T08:33:38.438Z</time>
      </trkpt>
      <trkpt lat="48.14356" lon="6.67135">
        <ele>598.247742</ele>
        <time>2020-10-12T08:33:44.124Z</time>
      </trkpt>
      <trkpt lat="48.14356" lon="6.67125">
        <ele>599.297791</ele>
        <time>2020-10-12T08:33:49.784Z</time>
      </trkpt>
      <trkpt lat="48.14355" lon="6.67116">
        <ele>598.740173</ele>
        <time>2020-10-12T08:33:55.177Z</time>
      </trkpt>
      <trkpt lat="48.14355" lon="6.671">
        <ele>599.378723</ele>
        <time>2020-10-12T08:34:05.631Z</time>
      </trkpt>
      <trkpt lat="48.14355" lon="6.67095">
        <ele>599.470703</ele>
        <time>2020-10-12T08:34:10.796Z</time>
      </trkpt>
      <trkpt lat="48.14356" lon="6.67091">
        <ele>599.366028</ele>
        <time>2020-10-12T08:34:15.828Z</time>
      </trkpt>
      <trkpt lat="48.14357" lon="6.67087">
        <ele>598.680481</ele>
        <time>2020-10-12T08:34:21.357Z</time>
      </trkpt>
      <trkpt lat="48.14359" lon="6.6708">
        <ele>599.305664</ele>
        <time>2020-10-12T08:34:27.151Z</time>
      </trkpt>
      <trkpt lat="48.14359" lon="6.6707">
        <ele>599.453918</ele>
        <time>2020-10-12T08:34:32.480Z</time>
      </trkpt>
      <trkpt lat="48.14358" lon="6.67058">
        <ele>598.775146</ele>
        <time>2020-10-12T08:34:38.169Z</time>
      </trkpt>
      <trkpt lat="48.14356" lon="6.6705">
        <ele>600.121399</ele>
        <time>2020-10-12T08:34:43.787Z</time>
      </trkpt>
      <trkpt lat="48.14355" lon="6.67043">
        <ele>600.799805</ele>
        <time>2020-10-12T08:34:48.873Z</time>
      </trkpt>
      <trkpt lat="48.14353" lon="6.67035">
        <ele>601.693298</ele>
        <time>2020-10-12T08:34:54.110Z</time>
      </trkpt>
      <trkpt lat="48.14352" lon="6.67027">
        <ele>602.533142</ele>
        <time>2020-10-12T08:34:59.830Z</time>
      </trkpt>
      <trkpt lat="48.14352" lon="6.67021">
        <ele>602.217834</ele>
        <time>2020-10-12T08:35:05.147Z</time>
      </trkpt>
      <trkpt lat="48.14351" lon="6.67015">
        <ele>602.18573</ele>
        <time>2020-10-12T08:35:10.365Z</time>
      </trkpt>
      <trkpt lat="48.1435" lon="6.6701">
        <ele>602.18573</ele>
        <time>2020-10-12T08:35:15.426Z</time>
      </trkpt>
      <trkpt lat="48.14348" lon="6.67004">
        <ele>602.867798</ele>
        <time>2020-10-12T08:35:20.961Z</time>
      </trkpt>
      <trkpt lat="48.14347" lon="6.67">
        <ele>602.570984</ele>
        <time>2020-10-12T08:35:26.199Z</time>
      </trkpt>
      <trkpt lat="48.14346" lon="6.66991">
        <ele>601.709045</ele>
        <time>2020-10-12T08:35:31.653Z</time>
      </trkpt>
      <trkpt lat="48.14345" lon="6.66985">
        <ele>600.646057</ele>
        <time>2020-10-12T08:35:37.157Z</time>
      </trkpt>
      <trkpt lat="48.14344" lon="6.66977">
        <ele>600.691895</ele>
        <time>2020-10-12T08:35:42.879Z</time>
      </trkpt>
      <trkpt lat="48.14343" lon="6.66968">
        <ele>601.600586</ele>
        <time>2020-10-12T08:35:48.154Z</time>
      </trkpt>
      <trkpt lat="48.14341" lon="6.66958">
        <ele>602.196167</ele>
        <time>2020-10-12T08:35:53.386Z</time>
      </trkpt>
      <trkpt lat="48.14341" lon="6.66948">
        <ele>603.268372</ele>
        <time>2020-10-12T08:35:58.424Z</time>
      </trkpt>
      <trkpt lat="48.1434" lon="6.66939">
        <ele>602.031738</ele>
        <time>2020-10-12T08:36:03.944Z</time>
      </trkpt>
      <trkpt lat="48.1434" lon="6.66933">
        <ele>600.389954</ele>
        <time>2020-10-12T08:36:08.973Z</time>
      </trkpt>
      <trkpt lat="48.14338" lon="6.66925">
        <ele>596.062805</ele>
        <time>2020-10-12T08:36:13.980Z</time>
      </trkpt>
      <trkpt lat="48.14336" lon="6.66919">
        <ele>594.311951</ele>
        <time>2020-10-12T08:36:18.987Z</time>
      </trkpt>
      <trkpt lat="48.14334" lon="6.6691">
        <ele>593.030457</ele>
        <time>2020-10-12T08:36:24.594Z</time>
      </trkpt>
      <trkpt lat="48.14332" lon="6.66902">
        <ele>593.582825</ele>
        <time>2020-10-12T08:36:30.152Z</time>
      </trkpt>
      <trkpt lat="48.14334" lon="6.66898">
        <ele>593.252319</ele>
        <time>2020-10-12T08:36:45.860Z</time>
      </trkpt>
      <trkpt lat="48.14331" lon="6.66889">
        <ele>591.182129</ele>
        <time>2020-10-12T08:36:51.160Z</time>
      </trkpt>
      <trkpt lat="48.14327" lon="6.6688">
        <ele>590.975586</ele>
        <time>2020-10-12T08:36:56.507Z</time>
      </trkpt>
      <trkpt lat="48.14325" lon="6.66872">
        <ele>592.521545</ele>
        <time>2020-10-12T08:37:01.926Z</time>
      </trkpt>
      <trkpt lat="48.14322" lon="6.66866">
        <ele>592.963013</ele>
        <time>2020-10-12T08:37:07.413Z</time>
      </trkpt>
      <trkpt lat="48.1432" lon="6.6686">
        <ele>591.831177</ele>
        <time>2020-10-12T08:37:13.166Z</time>
      </trkpt>
      <trkpt lat="48.14319" lon="6.66845">
        <ele>591.471191</ele>
        <time>2020-10-12T08:37:23.169Z</time>
      </trkpt>
      <trkpt lat="48.14319" lon="6.66837">
        <ele>592.032593</ele>
        <time>2020-10-12T08:37:28.738Z</time>
      </trkpt>
      <trkpt lat="48.14319" lon="6.66828">
        <ele>591.658325</ele>
        <time>2020-10-12T08:37:34.167Z</time>
      </trkpt>
      <trkpt lat="48.14319" lon="6.66821">
        <ele>591.757996</ele>
        <time>2020-10-12T08:37:39.733Z</time>
      </trkpt>
      <trkpt lat="48.1432" lon="6.66815">
        <ele>592.998108</ele>
        <time>2020-10-12T08:37:45.139Z</time>
      </trkpt>
      <trkpt lat="48.1432" lon="6.66809">
        <ele>593.318298</ele>
        <time>2020-10-12T08:37:50.524Z</time>
      </trkpt>
      <trkpt lat="48.14319" lon="6.66804">
        <ele>593.318298</ele>
        <time>2020-10-12T08:37:55.819Z</time>
      </trkpt>
      <trkpt lat="48.14318" lon="6.668">
        <ele>593.988464</ele>
        <time>2020-10-12T08:38:01.147Z</time>
      </trkpt>
      <trkpt lat="48.14318" lon="6.66794">
        <ele>596.560913</ele>
        <time>2020-10-12T08:38:06.169Z</time>
      </trkpt>
      <trkpt lat="48.14316" lon="6.66783">
        <ele>599.808289</ele>
        <time>2020-10-12T08:38:11.438Z</time>
      </trkpt>
      <trkpt lat="48.14315" lon="6.66771">
        <ele>602.9953</ele>
        <time>2020-10-12T08:38:16.562Z</time>
      </trkpt>
      <trkpt lat="48.14313" lon="6.66761">
        <ele>604.679199</ele>
        <time>2020-10-12T08:38:21.750Z</time>
      </trkpt>
      <trkpt lat="48.14311" lon="6.66752">
        <ele>604.997681</ele>
        <time>2020-10-12T08:38:26.962Z</time>
      </trkpt>
      <trkpt lat="48.1431" lon="6.66744">
        <ele>604.750305</ele>
        <time>2020-10-12T08:38:32.064Z</time>
      </trkpt>
      <trkpt lat="48.14308" lon="6.66736">
        <ele>604.355652</ele>
        <time>2020-10-12T08:38:37.124Z</time>
      </trkpt>
      <trkpt lat="48.14307" lon="6.66733">
        <ele>604.171997</ele>
        <time>2020-10-12T08:38:42.300Z</time>
      </trkpt>
      <trkpt lat="48.14305" lon="6.6673">
        <ele>605.051331</ele>
        <time>2020-10-12T08:38:48.197Z</time>
      </trkpt>
      <trkpt lat="48.14305" lon="6.66727">
        <ele>605.118835</ele>
        <time>2020-10-12T08:38:58.635Z</time>
      </trkpt>
      <trkpt lat="48.14303" lon="6.6672">
        <ele>605.069031</ele>
        <time>2020-10-12T08:39:03.955Z</time>
      </trkpt>
      <trkpt lat="48.14302" lon="6.66715">
        <ele>603.03656</ele>
        <time>2020-10-12T08:39:09.197Z</time>
      </trkpt>
      <trkpt lat="48.14302" lon="6.66703">
        <ele>603.500671</ele>
        <time>2020-10-12T08:39:19.168Z</time>
      </trkpt>
      <trkpt lat="48.14302" lon="6.66696">
        <ele>603.079346</ele>
        <time>2020-10-12T08:39:24.474Z</time>
      </trkpt>
      <trkpt lat="48.14301" lon="6.66689">
        <ele>601.660767</ele>
        <time>2020-10-12T08:39:29.893Z</time>
      </trkpt>
      <trkpt lat="48.14301" lon="6.66682">
        <ele>600.297546</ele>
        <time>2020-10-12T08:39:35.051Z</time>
      </trkpt>
      <trkpt lat="48.143" lon="6.66672">
        <ele>599.459229</ele>
        <time>2020-10-12T08:39:40.127Z</time>
      </trkpt>
      <trkpt lat="48.14298" lon="6.66662">
        <ele>598.459961</ele>
        <time>2020-10-12T08:39:45.777Z</time>
      </trkpt>
      <trkpt lat="48.14298" lon="6.66652">
        <ele>598.604309</ele>
        <time>2020-10-12T08:39:50.941Z</time>
      </trkpt>
      <trkpt lat="48.14299" lon="6.66644">
        <ele>599.50769</ele>
        <time>2020-10-12T08:39:56.584Z</time>
      </trkpt>
      <trkpt lat="48.14298" lon="6.66636">
        <ele>600.409912</ele>
        <time>2020-10-12T08:40:02.116Z</time>
      </trkpt>
      <trkpt lat="48.14297" lon="6.66622">
        <ele>600.683411</ele>
        <time>2020-10-12T08:40:12.634Z</time>
      </trkpt>
      <trkpt lat="48.14297" lon="6.66613">
        <ele>600.001099</ele>
        <time>2020-10-12T08:40:17.815Z</time>
      </trkpt>
      <trkpt lat="48.14298" lon="6.66604">
        <ele>601.315979</ele>
        <time>2020-10-12T08:40:23.171Z</time>
      </trkpt>
      <trkpt lat="48.14299" lon="6.66595">
        <ele>601.611328</ele>
        <time>2020-10-12T08:40:28.189Z</time>
      </trkpt>
      <trkpt lat="48.14299" lon="6.66587">
        <ele>601.847473</ele>
        <time>2020-10-12T08:40:33.931Z</time>
      </trkpt>
      <trkpt lat="48.143" lon="6.6658">
        <ele>601.84375</ele>
        <time>2020-10-12T08:40:39.138Z</time>
      </trkpt>
      <trkpt lat="48.14299" lon="6.66571">
        <ele>602.235962</ele>
        <time>2020-10-12T08:40:44.491Z</time>
      </trkpt>
      <trkpt lat="48.14299" lon="6.66561">
        <ele>602.343506</ele>
        <time>2020-10-12T08:40:50.095Z</time>
      </trkpt>
      <trkpt lat="48.14299" lon="6.66553">
        <ele>600.442139</ele>
        <time>2020-10-12T08:40:55.370Z</time>
      </trkpt>
      <trkpt lat="48.14299" lon="6.66543">
        <ele>598.106079</ele>
        <time>2020-10-12T08:41:00.852Z</time>
      </trkpt>
      <trkpt lat="48.143" lon="6.66533">
        <ele>596.573059</ele>
        <time>2020-10-12T08:41:06.160Z</time>
      </trkpt>
      <trkpt lat="48.14303" lon="6.66515">
        <ele>597.136536</ele>
        <time>2020-10-12T08:41:16.415Z</time>
      </trkpt>
      <trkpt lat="48.14306" lon="6.66505">
        <ele>597.784668</ele>
        <time>2020-10-12T08:41:21.712Z</time>
      </trkpt>
      <trkpt lat="48.14307" lon="6.66495">
        <ele>598.822205</ele>
        <time>2020-10-12T08:41:27.175Z</time>
      </trkpt>
      <trkpt lat="48.14309" lon="6.66488">
        <ele>599.830627</ele>
        <time>2020-10-12T08:41:32.512Z</time>
      </trkpt>
      <trkpt lat="48.14311" lon="6.66479">
        <ele>600.569458</ele>
        <time>2020-10-12T08:41:37.680Z</time>
      </trkpt>
      <trkpt lat="48.14313" lon="6.66472">
        <ele>601.506775</ele>
        <time>2020-10-12T08:41:42.897Z</time>
      </trkpt>
      <trkpt lat="48.14313" lon="6.66466">
        <ele>603.040466</ele>
        <time>2020-10-12T08:41:48.206Z</time>
      </trkpt>
      <trkpt lat="48.14313" lon="6.66467">
        <ele>603.317139</ele>
        <time>2020-10-12T08:41:53.219Z</time>
      </trkpt>
      <trkpt lat="48.14311" lon="6.66467">
        <ele>603.337158</ele>
        <time>2020-10-12T08:42:08.354Z</time>
      </trkpt>
      <trkpt lat="48.14308" lon="6.66475">
        <ele>601.482544</ele>
        <time>2020-10-12T08:42:14.185Z</time>
      </trkpt>
      <trkpt lat="48.14304" lon="6.66484">
        <ele>597.436401</ele>
        <time>2020-10-12T08:42:24.181Z</time>
      </trkpt>
      <trkpt lat="48.14308" lon="6.66483">
        <ele>596.855408</ele>
        <time>2020-10-12T08:42:29.550Z</time>
      </trkpt>
      <trkpt lat="48.14308" lon="6.6648">
        <ele>596.02124</ele>
        <time>2020-10-12T08:42:35.173Z</time>
      </trkpt>
      <trkpt lat="48.14309" lon="6.66484">
        <ele>596.090088</ele>
        <time>2020-10-12T08:42:51.159Z</time>
      </trkpt>
      <trkpt lat="48.14309" lon="6.66481">
        <ele>596.53186</ele>
        <time>2020-10-12T08:42:56.525Z</time>
      </trkpt>
      <trkpt lat="48.14309" lon="6.66476">
        <ele>596.628845</ele>
        <time>2020-10-12T08:43:02.166Z</time>
      </trkpt>
      <trkpt lat="48.14312" lon="6.66468">
        <ele>597.527588</ele>
        <time>2020-10-12T08:43:12.165Z</time>
      </trkpt>
      <trkpt lat="48.14315" lon="6.66467">
        <ele>597.527588</ele>
        <time>2020-10-12T08:43:17.192Z</time>
      </trkpt>
      <trkpt lat="48.14317" lon="6.66465">
        <ele>597.583191</ele>
        <time>2020-10-12T08:43:22.739Z</time>
      </trkpt>
      <trkpt lat="48.1432" lon="6.66461">
        <ele>597.754761</ele>
        <time>2020-10-12T08:43:28.134Z</time>
      </trkpt>
      <trkpt lat="48.14321" lon="6.66456">
        <ele>598.212891</ele>
        <time>2020-10-12T08:43:34.247Z</time>
      </trkpt>
      <trkpt lat="48.14323" lon="6.66452">
        <ele>599.929504</ele>
        <time>2020-10-12T08:43:39.915Z</time>
      </trkpt>
      <trkpt lat="48.14324" lon="6.66449">
        <ele>600.504028</ele>
        <time>2020-10-12T08:43:44.988Z</time>
      </trkpt>
      <trkpt lat="48.14326" lon="6.66444">
        <ele>602.120239</ele>
        <time>2020-10-12T08:43:50.114Z</time>
      </trkpt>
      <trkpt lat="48.14327" lon="6.66437">
        <ele>602.120239</ele>
        <time>2020-10-12T08:43:55.498Z</time>
      </trkpt>
      <trkpt lat="48.14329" lon="6.66435">
        <ele>602.123291</ele>
        <time>2020-10-12T08:44:00.592Z</time>
      </trkpt>
      <trkpt lat="48.14332" lon="6.66431">
        <ele>602.390503</ele>
        <time>2020-10-12T08:44:05.741Z</time>
      </trkpt>
      <trkpt lat="48.14335" lon="6.66425">
        <ele>603.934998</ele>
        <time>2020-10-12T08:44:11.122Z</time>
      </trkpt>
      <trkpt lat="48.14339" lon="6.66417">
        <ele>604.254517</ele>
        <time>2020-10-12T08:44:16.186Z</time>
      </trkpt>
      <trkpt lat="48.14343" lon="6.66411">
        <ele>604.254517</ele>
        <time>2020-10-12T08:44:21.458Z</time>
      </trkpt>
      <trkpt lat="48.14345" lon="6.66406">
        <ele>604.646912</ele>
        <time>2020-10-12T08:44:26.918Z</time>
      </trkpt>
      <trkpt lat="48.14347" lon="6.66402">
        <ele>605.428223</ele>
        <time>2020-10-12T08:44:32.172Z</time>
      </trkpt>
      <trkpt lat="48.1435" lon="6.66396">
        <ele>605.627136</ele>
        <time>2020-10-12T08:44:42.943Z</time>
      </trkpt>
      <trkpt lat="48.14352" lon="6.66394">
        <ele>606.896667</ele>
        <time>2020-10-12T08:44:48.184Z</time>
      </trkpt>
      <trkpt lat="48.14356" lon="6.66387">
        <ele>609.549561</ele>
        <time>2020-10-12T08:44:54.131Z</time>
      </trkpt>
      <trkpt lat="48.1436" lon="6.6638">
        <ele>609.549561</ele>
        <time>2020-10-12T08:45:00.120Z</time>
      </trkpt>
      <trkpt lat="48.14362" lon="6.66376">
        <ele>610.251038</ele>
        <time>2020-10-12T08:45:05.150Z</time>
      </trkpt>
      <trkpt lat="48.14365" lon="6.66372">
        <ele>612.732483</ele>
        <time>2020-10-12T08:45:10.542Z</time>
      </trkpt>
      <trkpt lat="48.14366" lon="6.66366">
        <ele>613.789001</ele>
        <time>2020-10-12T08:45:15.787Z</time>
      </trkpt>
      <trkpt lat="48.14368" lon="6.66361">
        <ele>614.635254</ele>
        <time>2020-10-12T08:45:20.863Z</time>
      </trkpt>
      <trkpt lat="48.1437" lon="6.66358">
        <ele>615.343933</ele>
        <time>2020-10-12T08:45:26.187Z</time>
      </trkpt>
      <trkpt lat="48.14373" lon="6.66352">
        <ele>616.5047</ele>
        <time>2020-10-12T08:45:32.183Z</time>
      </trkpt>
      <trkpt lat="48.14377" lon="6.66347">
        <ele>616.742981</ele>
        <time>2020-10-12T08:45:37.542Z</time>
      </trkpt>
      <trkpt lat="48.14378" lon="6.66343">
        <ele>617.012085</ele>
        <time>2020-10-12T08:45:43.162Z</time>
      </trkpt>
      <trkpt lat="48.14379" lon="6.66342">
        <ele>617.266052</ele>
        <time>2020-10-12T08:45:48.729Z</time>
      </trkpt>
      <trkpt lat="48.14382" lon="6.66338">
        <ele>617.266052</ele>
        <time>2020-10-12T08:45:53.823Z</time>
      </trkpt>
      <trkpt lat="48.14384" lon="6.66333">
        <ele>619.349976</ele>
        <time>2020-10-12T08:45:59.017Z</time>
      </trkpt>
      <trkpt lat="48.14386" lon="6.66329">
        <ele>620.897888</ele>
        <time>2020-10-12T08:46:04.156Z</time>
      </trkpt>
      <trkpt lat="48.14389" lon="6.66327">
        <ele>621.362</ele>
        <time>2020-10-12T08:46:09.694Z</time>
      </trkpt>
      <trkpt lat="48.1439" lon="6.66322">
        <ele>622.913147</ele>
        <time>2020-10-12T08:46:15.179Z</time>
      </trkpt>
      <trkpt lat="48.14393" lon="6.66317">
        <ele>623.118103</ele>
        <time>2020-10-12T08:46:21.175Z</time>
      </trkpt>
      <trkpt lat="48.14397" lon="6.6631">
        <ele>624.258301</ele>
        <time>2020-10-12T08:46:31.550Z</time>
      </trkpt>
      <trkpt lat="48.144" lon="6.66307">
        <ele>624.258301</ele>
        <time>2020-10-12T08:46:37.119Z</time>
      </trkpt>
      <trkpt lat="48.14401" lon="6.66305">
        <ele>624.258301</ele>
        <time>2020-10-12T08:46:42.419Z</time>
      </trkpt>
      <trkpt lat="48.14402" lon="6.66302">
        <ele>624.958435</ele>
        <time>2020-10-12T08:46:48.007Z</time>
      </trkpt>
      <trkpt lat="48.14404" lon="6.663">
        <ele>626.395203</ele>
        <time>2020-10-12T08:46:53.180Z</time>
      </trkpt>
      <trkpt lat="48.14408" lon="6.66292">
        <ele>628.391113</ele>
        <time>2020-10-12T08:47:03.205Z</time>
      </trkpt>
      <trkpt lat="48.14412" lon="6.66287">
        <ele>630.908203</ele>
        <time>2020-10-12T08:47:08.911Z</time>
      </trkpt>
      <trkpt lat="48.14417" lon="6.66282">
        <ele>630.908203</ele>
        <time>2020-10-12T08:47:14.182Z</time>
      </trkpt>
      <trkpt lat="48.14418" lon="6.66282">
        <ele>630.908203</ele>
        <time>2020-10-12T08:47:20.188Z</time>
      </trkpt>
      <trkpt lat="48.14418" lon="6.66281">
        <ele>630.908203</ele>
        <time>2020-10-12T08:47:33.195Z</time>
      </trkpt>
      <trkpt lat="48.14421" lon="6.66276">
        <ele>632.505493</ele>
        <time>2020-10-12T08:47:39.166Z</time>
      </trkpt>
      <trkpt lat="48.14428" lon="6.66267">
        <ele>633.891052</ele>
        <time>2020-10-12T08:47:49.144Z</time>
      </trkpt>
      <trkpt lat="48.14431" lon="6.6626">
        <ele>634.917786</ele>
        <time>2020-10-12T08:47:55.152Z</time>
      </trkpt>
      <trkpt lat="48.14436" lon="6.66256">
        <ele>636.279297</ele>
        <time>2020-10-12T08:48:00.481Z</time>
      </trkpt>
      <trkpt lat="48.14441" lon="6.6625">
        <ele>636.279297</ele>
        <time>2020-10-12T08:48:06.157Z</time>
      </trkpt>
      <trkpt lat="48.14445" lon="6.66245">
        <ele>636.279297</ele>
        <time>2020-10-12T08:48:12.147Z</time>
      </trkpt>
      <trkpt lat="48.14447" lon="6.66243">
        <ele>636.750122</ele>
        <time>2020-10-12T08:48:18.158Z</time>
      </trkpt>
      <trkpt lat="48.1445" lon="6.66239">
        <ele>638.922546</ele>
        <time>2020-10-12T08:48:23.621Z</time>
      </trkpt>
      <trkpt lat="48.14452" lon="6.66236">
        <ele>639.935425</ele>
        <time>2020-10-12T08:48:28.839Z</time>
      </trkpt>
      <trkpt lat="48.14454" lon="6.66232">
        <ele>639.935425</ele>
        <time>2020-10-12T08:48:34.155Z</time>
      </trkpt>
      <trkpt lat="48.14456" lon="6.66231">
        <ele>639.935425</ele>
        <time>2020-10-12T08:48:39.339Z</time>
      </trkpt>
      <trkpt lat="48.14458" lon="6.66228">
        <ele>639.935425</ele>
        <time>2020-10-12T08:48:44.941Z</time>
      </trkpt>
      <trkpt lat="48.14459" lon="6.66224">
        <ele>643.4646</ele>
        <time>2020-10-12T08:48:50.446Z</time>
      </trkpt>
      <trkpt lat="48.1446" lon="6.66221">
        <ele>644.187073</ele>
        <time>2020-10-12T08:48:56.107Z</time>
      </trkpt>
      <trkpt lat="48.14463" lon="6.66216">
        <ele>646.115967</ele>
        <time>2020-10-12T08:49:02.153Z</time>
      </trkpt>
      <trkpt lat="48.14465" lon="6.66211">
        <ele>646.115967</ele>
        <time>2020-10-12T08:49:07.176Z</time>
      </trkpt>
      <trkpt lat="48.14468" lon="6.66206">
        <ele>646.115967</ele>
        <time>2020-10-12T08:49:12.214Z</time>
      </trkpt>
      <trkpt lat="48.1447" lon="6.66202">
        <ele>646.115967</ele>
        <time>2020-10-12T08:49:17.984Z</time>
      </trkpt>
      <trkpt lat="48.14472" lon="6.66199">
        <ele>646.426025</ele>
        <time>2020-10-12T08:49:24.113Z</time>
      </trkpt>
      <trkpt lat="48.14476" lon="6.66192">
        <ele>649.369202</ele>
        <time>2020-10-12T08:50:04.157Z</time>
      </trkpt>
      <trkpt lat="48.1448" lon="6.66187">
        <ele>649.693359</ele>
        <time>2020-10-12T08:50:09.522Z</time>
      </trkpt>
      <trkpt lat="48.14485" lon="6.66183">
        <ele>649.641296</ele>
        <time>2020-10-12T08:50:14.992Z</time>
      </trkpt>
      <trkpt lat="48.14487" lon="6.6618">
        <ele>650.030029</ele>
        <time>2020-10-12T08:50:20.231Z</time>
      </trkpt>
      <trkpt lat="48.1449" lon="6.66177">
        <ele>652.697266</ele>
        <time>2020-10-12T08:50:25.820Z</time>
      </trkpt>
      <trkpt lat="48.14493" lon="6.66175">
        <ele>655.089966</ele>
        <time>2020-10-12T08:50:31.164Z</time>
      </trkpt>
      <trkpt lat="48.14495" lon="6.66173">
        <ele>656.072571</ele>
        <time>2020-10-12T08:50:36.792Z</time>
      </trkpt>
      <trkpt lat="48.14497" lon="6.66168">
        <ele>657.660034</ele>
        <time>2020-10-12T08:50:42.153Z</time>
      </trkpt>
      <trkpt lat="48.145" lon="6.66164">
        <ele>659.463074</ele>
        <time>2020-10-12T08:50:47.945Z</time>
      </trkpt>
      <trkpt lat="48.14501" lon="6.6616">
        <ele>659.463074</ele>
        <time>2020-10-12T08:50:53.453Z</time>
      </trkpt>
      <trkpt lat="48.14504" lon="6.66157">
        <ele>659.177734</ele>
        <time>2020-10-12T08:50:58.926Z</time>
      </trkpt>
      <trkpt lat="48.14506" lon="6.66154">
        <ele>659.054565</ele>
        <time>2020-10-12T08:51:04.187Z</time>
      </trkpt>
      <trkpt lat="48.14509" lon="6.6615">
        <ele>659.054565</ele>
        <time>2020-10-12T08:51:09.599Z</time>
      </trkpt>
      <trkpt lat="48.14511" lon="6.66145">
        <ele>659.771912</ele>
        <time>2020-10-12T08:51:14.804Z</time>
      </trkpt>
      <trkpt lat="48.14512" lon="6.66141">
        <ele>660.239075</ele>
        <time>2020-10-12T08:51:20.130Z</time>
      </trkpt>
      <trkpt lat="48.14515" lon="6.66137">
        <ele>660.678162</ele>
        <time>2020-10-12T08:51:25.194Z</time>
      </trkpt>
      <trkpt lat="48.14518" lon="6.66132">
        <ele>662.582214</ele>
        <time>2020-10-12T08:51:30.813Z</time>
      </trkpt>
      <trkpt lat="48.14522" lon="6.66128">
        <ele>662.872192</ele>
        <time>2020-10-12T08:51:36.166Z</time>
      </trkpt>
      <trkpt lat="48.14525" lon="6.66123">
        <ele>662.872192</ele>
        <time>2020-10-12T08:51:41.752Z</time>
      </trkpt>
      <trkpt lat="48.14528" lon="6.6612">
        <ele>663.224792</ele>
        <time>2020-10-12T08:51:47.066Z</time>
      </trkpt>
      <trkpt lat="48.14529" lon="6.66117">
        <ele>666.321716</ele>
        <time>2020-10-12T08:51:52.162Z</time>
      </trkpt>
      <trkpt lat="48.14535" lon="6.66109">
        <ele>667.535095</ele>
        <time>2020-10-12T08:52:03.195Z</time>
      </trkpt>
      <trkpt lat="48.1454" lon="6.66096">
        <ele>669.155151</ele>
        <time>2020-10-12T08:52:13.889Z</time>
      </trkpt>
      <trkpt lat="48.14544" lon="6.6609">
        <ele>668.112122</ele>
        <time>2020-10-12T08:52:19.183Z</time>
      </trkpt>
      <trkpt lat="48.14552" lon="6.66079">
        <ele>667.321228</ele>
        <time>2020-10-12T08:52:29.741Z</time>
      </trkpt>
      <trkpt lat="48.14556" lon="6.66075">
        <ele>666.626282</ele>
        <time>2020-10-12T08:52:34.824Z</time>
      </trkpt>
      <trkpt lat="48.14559" lon="6.6607">
        <ele>664.345215</ele>
        <time>2020-10-12T08:52:39.926Z</time>
      </trkpt>
      <trkpt lat="48.14564" lon="6.66067">
        <ele>663.759766</ele>
        <time>2020-10-12T08:52:45.130Z</time>
      </trkpt>
      <trkpt lat="48.14567" lon="6.66063">
        <ele>663.950195</ele>
        <time>2020-10-12T08:52:50.232Z</time>
      </trkpt>
      <trkpt lat="48.1457" lon="6.66062">
        <ele>664.371582</ele>
        <time>2020-10-12T08:52:55.513Z</time>
      </trkpt>
      <trkpt lat="48.14573" lon="6.66059">
        <ele>664.371582</ele>
        <time>2020-10-12T08:53:00.611Z</time>
      </trkpt>
      <trkpt lat="48.14576" lon="6.6606">
        <ele>664.542297</ele>
        <time>2020-10-12T08:53:05.797Z</time>
      </trkpt>
      <trkpt lat="48.14579" lon="6.66061">
        <ele>665.117126</ele>
        <time>2020-10-12T08:53:10.957Z</time>
      </trkpt>
      <trkpt lat="48.14581" lon="6.66064">
        <ele>666.583862</ele>
        <time>2020-10-12T08:53:16.154Z</time>
      </trkpt>
      <trkpt lat="48.14582" lon="6.66068">
        <ele>667.356201</ele>
        <time>2020-10-12T08:53:21.199Z</time>
      </trkpt>
      <trkpt lat="48.14583" lon="6.66066">
        <ele>667.356201</ele>
        <time>2020-10-12T08:53:26.397Z</time>
      </trkpt>
      <trkpt lat="48.14584" lon="6.66068">
        <ele>668.93988</ele>
        <time>2020-10-12T08:53:31.843Z</time>
      </trkpt>
      <trkpt lat="48.14586" lon="6.66073">
        <ele>669.165344</ele>
        <time>2020-10-12T08:53:37.156Z</time>
      </trkpt>
      <trkpt lat="48.14589" lon="6.66076">
        <ele>669.485962</ele>
        <time>2020-10-12T08:53:42.185Z</time>
      </trkpt>
      <trkpt lat="48.14591" lon="6.66085">
        <ele>669.308228</ele>
        <time>2020-10-12T08:53:52.744Z</time>
      </trkpt>
      <trkpt lat="48.1459" lon="6.66087">
        <ele>671.391541</ele>
        <time>2020-10-12T08:54:16.166Z</time>
      </trkpt>
      <trkpt lat="48.14593" lon="6.66097">
        <ele>672.346558</ele>
        <time>2020-10-12T08:54:32.407Z</time>
      </trkpt>
      <trkpt lat="48.14594" lon="6.66103">
        <ele>671.160706</ele>
        <time>2020-10-12T08:54:37.724Z</time>
      </trkpt>
      <trkpt lat="48.14595" lon="6.6611">
        <ele>670.082153</ele>
        <time>2020-10-12T08:54:42.783Z</time>
      </trkpt>
      <trkpt lat="48.14595" lon="6.66117">
        <ele>670.161926</ele>
        <time>2020-10-12T08:54:47.960Z</time>
      </trkpt>
      <trkpt lat="48.14594" lon="6.66125">
        <ele>672.679321</ele>
        <time>2020-10-12T08:54:53.155Z</time>
      </trkpt>
      <trkpt lat="48.14592" lon="6.66134">
        <ele>672.560913</ele>
        <time>2020-10-12T08:54:58.348Z</time>
      </trkpt>
      <trkpt lat="48.14592" lon="6.66142">
        <ele>671.820007</ele>
        <time>2020-10-12T08:55:04.173Z</time>
      </trkpt>
      <trkpt lat="48.14591" lon="6.6615">
        <ele>672.348083</ele>
        <time>2020-10-12T08:55:09.871Z</time>
      </trkpt>
      <trkpt lat="48.14589" lon="6.66157">
        <ele>673.505737</ele>
        <time>2020-10-12T08:55:15.237Z</time>
      </trkpt>
      <trkpt lat="48.14586" lon="6.66163">
        <ele>674.441284</ele>
        <time>2020-10-12T08:55:20.760Z</time>
      </trkpt>
      <trkpt lat="48.14582" lon="6.66171">
        <ele>673.415588</ele>
        <time>2020-10-12T08:55:26.186Z</time>
      </trkpt>
      <trkpt lat="48.14578" lon="6.66181">
        <ele>673.735657</ele>
        <time>2020-10-12T08:55:31.781Z</time>
      </trkpt>
      <trkpt lat="48.14573" lon="6.66187">
        <ele>674.232056</ele>
        <time>2020-10-12T08:55:36.908Z</time>
      </trkpt>
      <trkpt lat="48.1457" lon="6.66194">
        <ele>674.975708</ele>
        <time>2020-10-12T08:55:42.000Z</time>
      </trkpt>
      <trkpt lat="48.14569" lon="6.66201">
        <ele>675.180481</ele>
        <time>2020-10-12T08:55:47.195Z</time>
      </trkpt>
      <trkpt lat="48.14568" lon="6.66215">
        <ele>675.358582</ele>
        <time>2020-10-12T08:55:57.551Z</time>
      </trkpt>
      <trkpt lat="48.14567" lon="6.66224">
        <ele>675.3302</ele>
        <time>2020-10-12T08:56:03.180Z</time>
      </trkpt>
      <trkpt lat="48.14563" lon="6.66236">
        <ele>674.900818</ele>
        <time>2020-10-12T08:56:13.968Z</time>
      </trkpt>
      <trkpt lat="48.14559" lon="6.66241">
        <ele>674.390198</ele>
        <time>2020-10-12T08:56:19.743Z</time>
      </trkpt>
      <trkpt lat="48.14555" lon="6.66246">
        <ele>672.861938</ele>
        <time>2020-10-12T08:56:25.152Z</time>
      </trkpt>
      <trkpt lat="48.14551" lon="6.66253">
        <ele>672.180786</ele>
        <time>2020-10-12T08:56:30.616Z</time>
      </trkpt>
      <trkpt lat="48.14548" lon="6.66259">
        <ele>672.044617</ele>
        <time>2020-10-12T08:56:35.725Z</time>
      </trkpt>
      <trkpt lat="48.14546" lon="6.66265">
        <ele>672.027405</ele>
        <time>2020-10-12T08:56:41.187Z</time>
      </trkpt>
      <trkpt lat="48.14544" lon="6.66274">
        <ele>673.403748</ele>
        <time>2020-10-12T08:56:51.533Z</time>
      </trkpt>
      <trkpt lat="48.14543" lon="6.66282">
        <ele>673.576416</ele>
        <time>2020-10-12T08:56:56.863Z</time>
      </trkpt>
      <trkpt lat="48.14541" lon="6.66289">
        <ele>672.320984</ele>
        <time>2020-10-12T08:57:02.159Z</time>
      </trkpt>
      <trkpt lat="48.14539" lon="6.66304">
        <ele>671.675537</ele>
        <time>2020-10-12T08:57:12.168Z</time>
      </trkpt>
      <trkpt lat="48.14537" lon="6.66313">
        <ele>672.105774</ele>
        <time>2020-10-12T08:57:17.663Z</time>
      </trkpt>
      <trkpt lat="48.14533" lon="6.66318">
        <ele>671.55719</ele>
        <time>2020-10-12T08:57:23.128Z</time>
      </trkpt>
      <trkpt lat="48.14531" lon="6.66326">
        <ele>670.53595</ele>
        <time>2020-10-12T08:57:29.009Z</time>
      </trkpt>
      <trkpt lat="48.14529" lon="6.66333">
        <ele>670.164795</ele>
        <time>2020-10-12T08:57:34.173Z</time>
      </trkpt>
      <trkpt lat="48.14527" lon="6.66347">
        <ele>670.081726</ele>
        <time>2020-10-12T08:57:44.678Z</time>
      </trkpt>
      <trkpt lat="48.14525" lon="6.66355">
        <ele>670.712463</ele>
        <time>2020-10-12T08:57:49.788Z</time>
      </trkpt>
      <trkpt lat="48.14524" lon="6.66361">
        <ele>670.955566</ele>
        <time>2020-10-12T08:57:54.945Z</time>
      </trkpt>
      <trkpt lat="48.14523" lon="6.66368">
        <ele>669.715515</ele>
        <time>2020-10-12T08:58:00.149Z</time>
      </trkpt>
      <trkpt lat="48.14522" lon="6.66375">
        <ele>668.843567</ele>
        <time>2020-10-12T08:58:06.174Z</time>
      </trkpt>
      <trkpt lat="48.14522" lon="6.66382">
        <ele>668.342773</ele>
        <time>2020-10-12T08:58:11.759Z</time>
      </trkpt>
      <trkpt lat="48.14521" lon="6.66389">
        <ele>667.854553</ele>
        <time>2020-10-12T08:58:17.158Z</time>
      </trkpt>
      <trkpt lat="48.1452" lon="6.66396">
        <ele>669.197815</ele>
        <time>2020-10-12T08:58:22.377Z</time>
      </trkpt>
      <trkpt lat="48.14519" lon="6.66404">
        <ele>669.966736</ele>
        <time>2020-10-12T08:58:27.580Z</time>
      </trkpt>
      <trkpt lat="48.14518" lon="6.6641">
        <ele>670.302856</ele>
        <time>2020-10-12T08:58:33.094Z</time>
      </trkpt>
      <trkpt lat="48.14514" lon="6.66415">
        <ele>671.813843</ele>
        <time>2020-10-12T08:58:38.878Z</time>
      </trkpt>
      <trkpt lat="48.14512" lon="6.66417">
        <ele>671.813843</ele>
        <time>2020-10-12T08:58:43.956Z</time>
      </trkpt>
      <trkpt lat="48.14508" lon="6.66418">
        <ele>672.556946</ele>
        <time>2020-10-12T08:58:49.345Z</time>
      </trkpt>
      <trkpt lat="48.14504" lon="6.66419">
        <ele>673.141602</ele>
        <time>2020-10-12T08:58:54.713Z</time>
      </trkpt>
      <trkpt lat="48.145" lon="6.66421">
        <ele>675.171692</ele>
        <time>2020-10-12T08:59:00.183Z</time>
      </trkpt>
      <trkpt lat="48.14493" lon="6.66424">
        <ele>678.045471</ele>
        <time>2020-10-12T08:59:10.182Z</time>
      </trkpt>
      <trkpt lat="48.14488" lon="6.66429">
        <ele>679.473511</ele>
        <time>2020-10-12T08:59:15.551Z</time>
      </trkpt>
      <trkpt lat="48.14482" lon="6.66433">
        <ele>680.983215</ele>
        <time>2020-10-12T08:59:21.170Z</time>
      </trkpt>
      <trkpt lat="48.14476" lon="6.66439">
        <ele>680.978821</ele>
        <time>2020-10-12T08:59:26.178Z</time>
      </trkpt>
      <trkpt lat="48.14471" lon="6.66445">
        <ele>680.277588</ele>
        <time>2020-10-12T08:59:31.472Z</time>
      </trkpt>
      <trkpt lat="48.14466" lon="6.66452">
        <ele>678.765259</ele>
        <time>2020-10-12T08:59:36.821Z</time>
      </trkpt>
      <trkpt lat="48.14462" lon="6.66459">
        <ele>678.32782</ele>
        <time>2020-10-12T08:59:42.166Z</time>
      </trkpt>
      <trkpt lat="48.14459" lon="6.66466">
        <ele>677.975464</ele>
        <time>2020-10-12T08:59:47.234Z</time>
      </trkpt>
      <trkpt lat="48.14455" lon="6.66474">
        <ele>677.217041</ele>
        <time>2020-10-12T08:59:52.879Z</time>
      </trkpt>
      <trkpt lat="48.14451" lon="6.66482">
        <ele>677.279297</ele>
        <time>2020-10-12T08:59:58.362Z</time>
      </trkpt>
      <trkpt lat="48.14447" lon="6.6649">
        <ele>677.311707</ele>
        <time>2020-10-12T09:00:04.033Z</time>
      </trkpt>
      <trkpt lat="48.14443" lon="6.66496">
        <ele>678.12561</ele>
        <time>2020-10-12T09:00:09.561Z</time>
      </trkpt>
      <trkpt lat="48.1444" lon="6.66504">
        <ele>679.080566</ele>
        <time>2020-10-12T09:00:15.087Z</time>
      </trkpt>
      <trkpt lat="48.14437" lon="6.66513">
        <ele>679.619263</ele>
        <time>2020-10-12T09:00:20.560Z</time>
      </trkpt>
      <trkpt lat="48.14435" lon="6.66519">
        <ele>679.844299</ele>
        <time>2020-10-12T09:00:26.144Z</time>
      </trkpt>
      <trkpt lat="48.14432" lon="6.66533">
        <ele>677.36322</ele>
        <time>2020-10-12T09:00:36.671Z</time>
      </trkpt>
      <trkpt lat="48.14431" lon="6.66541">
        <ele>675.882751</ele>
        <time>2020-10-12T09:00:41.790Z</time>
      </trkpt>
      <trkpt lat="48.1443" lon="6.66549">
        <ele>674.204285</ele>
        <time>2020-10-12T09:00:47.123Z</time>
      </trkpt>
      <trkpt lat="48.14429" lon="6.66558">
        <ele>673.553162</ele>
        <time>2020-10-12T09:00:52.832Z</time>
      </trkpt>
      <trkpt lat="48.14428" lon="6.66565">
        <ele>672.962219</ele>
        <time>2020-10-12T09:00:57.899Z</time>
      </trkpt>
      <trkpt lat="48.14428" lon="6.66571">
        <ele>671.796692</ele>
        <time>2020-10-12T09:01:03.001Z</time>
      </trkpt>
      <trkpt lat="48.14425" lon="6.66584">
        <ele>671.261963</ele>
        <time>2020-10-12T09:01:13.245Z</time>
      </trkpt>
      <trkpt lat="48.14424" lon="6.66591">
        <ele>670.662231</ele>
        <time>2020-10-12T09:01:18.689Z</time>
      </trkpt>
      <trkpt lat="48.14423" lon="6.66599">
        <ele>670.651306</ele>
        <time>2020-10-12T09:01:24.092Z</time>
      </trkpt>
      <trkpt lat="48.14421" lon="6.66603">
        <ele>670.095886</ele>
        <time>2020-10-12T09:01:29.160Z</time>
      </trkpt>
      <trkpt lat="48.14418" lon="6.66606">
        <ele>671.419189</ele>
        <time>2020-10-12T09:01:35.501Z</time>
      </trkpt>
      <trkpt lat="48.14416" lon="6.66605">
        <ele>444.600006</ele>
        <time>2020-10-12T09:01:41.217Z</time>
      </trkpt>
      <trkpt lat="48.14416" lon="6.66604">
        <ele>444.600006</ele>
        <time>2020-10-12T09:01:57.069Z</time>
      </trkpt>
      <trkpt lat="48.14415" lon="6.66603">
        <ele>444.600006</ele>
        <time>2020-10-12T09:02:05.344Z</time>
      </trkpt>
      <trkpt lat="48.14415" lon="6.66614">
        <ele>444.600006</ele>
        <time>2020-10-12T09:02:17.750Z</time>
      </trkpt>
      <trkpt lat="48.14431" lon="6.66618">
        <ele>444.600006</ele>
        <time>2020-10-12T09:02:27.853Z</time>
      </trkpt>
      <trkpt lat="48.14424" lon="6.66631">
        <ele>444.600006</ele>
        <time>2020-10-12T09:02:33.117Z</time>
      </trkpt>
      <trkpt lat="48.14419" lon="6.66641">
        <ele>444.600006</ele>
        <time>2020-10-12T09:02:38.168Z</time>
      </trkpt>
      <trkpt lat="48.14419" lon="6.66647">
        <ele>678.096497</ele>
        <time>2020-10-12T09:02:43.695Z</time>
      </trkpt>
      <trkpt lat="48.14418" lon="6.66651">
        <ele>677.939453</ele>
        <time>2020-10-12T09:02:49.176Z</time>
      </trkpt>
      <trkpt lat="48.14421" lon="6.66655">
        <ele>677.939453</ele>
        <time>2020-10-12T09:02:55.148Z</time>
      </trkpt>
      <trkpt lat="48.14422" lon="6.66658">
        <ele>677.624512</ele>
        <time>2020-10-12T09:03:00.479Z</time>
      </trkpt>
      <trkpt lat="48.14423" lon="6.66665">
        <ele>675.344482</ele>
        <time>2020-10-12T09:03:06.182Z</time>
      </trkpt>
      <trkpt lat="48.1443" lon="6.66678">
        <ele>671.621582</ele>
        <time>2020-10-12T09:03:16.145Z</time>
      </trkpt>
      <trkpt lat="48.14433" lon="6.66684">
        <ele>670.347961</ele>
        <time>2020-10-12T09:03:21.476Z</time>
      </trkpt>
      <trkpt lat="48.14436" lon="6.66688">
        <ele>670.857361</ele>
        <time>2020-10-12T09:03:26.973Z</time>
      </trkpt>
      <trkpt lat="48.14439" lon="6.66695">
        <ele>669.697327</ele>
        <time>2020-10-12T09:03:32.431Z</time>
      </trkpt>
      <trkpt lat="48.14442" lon="6.66702">
        <ele>668.932068</ele>
        <time>2020-10-12T09:03:37.921Z</time>
      </trkpt>
      <trkpt lat="48.14443" lon="6.66707">
        <ele>668.932068</ele>
        <time>2020-10-12T09:03:42.975Z</time>
      </trkpt>
      <trkpt lat="48.14444" lon="6.66713">
        <ele>667.36853</ele>
        <time>2020-10-12T09:03:48.166Z</time>
      </trkpt>
      <trkpt lat="48.14447" lon="6.66721">
        <ele>664.840027</ele>
        <time>2020-10-12T09:03:53.785Z</time>
      </trkpt>
      <trkpt lat="48.14449" lon="6.66727">
        <ele>664.833862</ele>
        <time>2020-10-12T09:03:58.899Z</time>
      </trkpt>
      <trkpt lat="48.14452" lon="6.66734">
        <ele>665.278137</ele>
        <time>2020-10-12T09:04:03.909Z</time>
      </trkpt>
      <trkpt lat="48.14454" lon="6.6674">
        <ele>665.192627</ele>
        <time>2020-10-12T09:04:08.910Z</time>
      </trkpt>
      <trkpt lat="48.14456" lon="6.66745">
        <ele>664.893127</ele>
        <time>2020-10-12T09:04:14.513Z</time>
      </trkpt>
      <trkpt lat="48.14458" lon="6.66753">
        <ele>666.107239</ele>
        <time>2020-10-12T09:04:19.706Z</time>
      </trkpt>
      <trkpt lat="48.14461" lon="6.66761">
        <ele>668.223206</ele>
        <time>2020-10-12T09:04:25.166Z</time>
      </trkpt>
      <trkpt lat="48.14461" lon="6.66771">
        <ele>668.689026</ele>
        <time>2020-10-12T09:04:30.645Z</time>
      </trkpt>
      <trkpt lat="48.14463" lon="6.6678">
        <ele>668.536987</ele>
        <time>2020-10-12T09:04:36.163Z</time>
      </trkpt>
      <trkpt lat="48.14465" lon="6.66797">
        <ele>666.764404</ele>
        <time>2020-10-12T09:04:46.604Z</time>
      </trkpt>
      <trkpt lat="48.14466" lon="6.66806">
        <ele>665.640259</ele>
        <time>2020-10-12T09:04:52.183Z</time>
      </trkpt>
      <trkpt lat="48.14467" lon="6.66812">
        <ele>665.990601</ele>
        <time>2020-10-12T09:04:57.189Z</time>
      </trkpt>
      <trkpt lat="48.14468" lon="6.66821">
        <ele>666.384888</ele>
        <time>2020-10-12T09:05:02.932Z</time>
      </trkpt>
      <trkpt lat="48.14469" lon="6.66829">
        <ele>667.322021</ele>
        <time>2020-10-12T09:05:08.163Z</time>
      </trkpt>
      <trkpt lat="48.14471" lon="6.6684">
        <ele>669.566833</ele>
        <time>2020-10-12T09:05:14.155Z</time>
      </trkpt>
      <trkpt lat="48.14471" lon="6.66849">
        <ele>671.432617</ele>
        <time>2020-10-12T09:05:19.506Z</time>
      </trkpt>
      <trkpt lat="48.14472" lon="6.66859">
        <ele>674.253052</ele>
        <time>2020-10-12T09:05:25.010Z</time>
      </trkpt>
      <trkpt lat="48.14473" lon="6.66867">
        <ele>674.921997</ele>
        <time>2020-10-12T09:05:30.477Z</time>
      </trkpt>
      <trkpt lat="48.14473" lon="6.66875">
        <ele>674.179932</ele>
        <time>2020-10-12T09:05:36.182Z</time>
      </trkpt>
      <trkpt lat="48.14474" lon="6.66884">
        <ele>674.196533</ele>
        <time>2020-10-12T09:05:42.177Z</time>
      </trkpt>
      <trkpt lat="48.14475" lon="6.6689">
        <ele>674.303772</ele>
        <time>2020-10-12T09:05:47.657Z</time>
      </trkpt>
      <trkpt lat="48.14475" lon="6.66897">
        <ele>674.298218</ele>
        <time>2020-10-12T09:05:53.218Z</time>
      </trkpt>
      <trkpt lat="48.14474" lon="6.66904">
        <ele>673.184448</ele>
        <time>2020-10-12T09:05:58.748Z</time>
      </trkpt>
      <trkpt lat="48.14473" lon="6.66908">
        <ele>672.348999</ele>
        <time>2020-10-12T09:06:04.200Z</time>
      </trkpt>
      <trkpt lat="48.14471" lon="6.66921">
        <ele>667.513062</ele>
        <time>2020-10-12T09:06:14.649Z</time>
      </trkpt>
      <trkpt lat="48.14471" lon="6.66925">
        <ele>666.940674</ele>
        <time>2020-10-12T09:06:19.739Z</time>
      </trkpt>
      <trkpt lat="48.14471" lon="6.66931">
        <ele>666.940674</ele>
        <time>2020-10-12T09:06:25.158Z</time>
      </trkpt>
      <trkpt lat="48.14472" lon="6.66938">
        <ele>667.13501</ele>
        <time>2020-10-12T09:06:30.198Z</time>
      </trkpt>
      <trkpt lat="48.14472" lon="6.66949">
        <ele>666.160217</ele>
        <time>2020-10-12T09:06:40.286Z</time>
      </trkpt>
      <trkpt lat="48.14472" lon="6.66955">
        <ele>665.75647</ele>
        <time>2020-10-12T09:06:45.385Z</time>
      </trkpt>
      <trkpt lat="48.14472" lon="6.66962">
        <ele>663.965759</ele>
        <time>2020-10-12T09:06:50.652Z</time>
      </trkpt>
      <trkpt lat="48.14473" lon="6.6697">
        <ele>662.674927</ele>
        <time>2020-10-12T09:06:56.201Z</time>
      </trkpt>
      <trkpt lat="48.14474" lon="6.66976">
        <ele>663.188843</ele>
        <time>2020-10-12T09:07:01.644Z</time>
      </trkpt>
      <trkpt lat="48.14475" lon="6.66981">
        <ele>663.188843</ele>
        <time>2020-10-12T09:07:06.880Z</time>
      </trkpt>
      <trkpt lat="48.14475" lon="6.66987">
        <ele>663.445923</ele>
        <time>2020-10-12T09:07:12.169Z</time>
      </trkpt>
      <trkpt lat="48.14477" lon="6.66994">
        <ele>663.445923</ele>
        <time>2020-10-12T09:07:17.511Z</time>
      </trkpt>
      <trkpt lat="48.14478" lon="6.67">
        <ele>662.447571</ele>
        <time>2020-10-12T09:07:23.214Z</time>
      </trkpt>
      <trkpt lat="48.14479" lon="6.67009">
        <ele>660.911621</ele>
        <time>2020-10-12T09:07:28.623Z</time>
      </trkpt>
      <trkpt lat="48.14478" lon="6.67017">
        <ele>660.703186</ele>
        <time>2020-10-12T09:07:34.119Z</time>
      </trkpt>
      <trkpt lat="48.14477" lon="6.67026">
        <ele>659.917664</ele>
        <time>2020-10-12T09:07:39.185Z</time>
      </trkpt>
      <trkpt lat="48.14476" lon="6.67035">
        <ele>660.004639</ele>
        <time>2020-10-12T09:07:44.192Z</time>
      </trkpt>
      <trkpt lat="48.14476" lon="6.67042">
        <ele>660.029968</ele>
        <time>2020-10-12T09:07:49.429Z</time>
      </trkpt>
      <trkpt lat="48.14476" lon="6.67044">
        <ele>660.020203</ele>
        <time>2020-10-12T09:07:54.613Z</time>
      </trkpt>
      <trkpt lat="48.14475" lon="6.67051">
        <ele>659.839233</ele>
        <time>2020-10-12T09:07:59.819Z</time>
      </trkpt>
      <trkpt lat="48.14475" lon="6.67057">
        <ele>659.117371</ele>
        <time>2020-10-12T09:08:04.865Z</time>
      </trkpt>
      <trkpt lat="48.14477" lon="6.67061">
        <ele>659.117371</ele>
        <time>2020-10-12T09:08:10.206Z</time>
      </trkpt>
      <trkpt lat="48.14479" lon="6.67067">
        <ele>659.117371</ele>
        <time>2020-10-12T09:08:15.438Z</time>
      </trkpt>
      <trkpt lat="48.1448" lon="6.67071">
        <ele>658.855042</ele>
        <time>2020-10-12T09:08:20.711Z</time>
      </trkpt>
      <trkpt lat="48.1448" lon="6.67074">
        <ele>658.932617</ele>
        <time>2020-10-12T09:08:25.812Z</time>
      </trkpt>
      <trkpt lat="48.1448" lon="6.67078">
        <ele>659.083191</ele>
        <time>2020-10-12T09:08:31.152Z</time>
      </trkpt>
      <trkpt lat="48.14479" lon="6.67084">
        <ele>658.356812</ele>
        <time>2020-10-12T09:08:37.181Z</time>
      </trkpt>
      <trkpt lat="48.14477" lon="6.67093">
        <ele>658.103882</ele>
        <time>2020-10-12T09:08:42.826Z</time>
      </trkpt>
      <trkpt lat="48.14476" lon="6.67104">
        <ele>657.979919</ele>
        <time>2020-10-12T09:08:48.128Z</time>
      </trkpt>
      <trkpt lat="48.14474" lon="6.67115">
        <ele>658.311768</ele>
        <time>2020-10-12T09:08:53.559Z</time>
      </trkpt>
      <trkpt lat="48.14472" lon="6.67125">
        <ele>657.422974</ele>
        <time>2020-10-12T09:08:58.710Z</time>
      </trkpt>
      <trkpt lat="48.14471" lon="6.67132">
        <ele>657.304932</ele>
        <time>2020-10-12T09:09:03.851Z</time>
      </trkpt>
      <trkpt lat="48.14469" lon="6.67139">
        <ele>656.457275</ele>
        <time>2020-10-12T09:09:09.128Z</time>
      </trkpt>
      <trkpt lat="48.1447" lon="6.67145">
        <ele>656.322937</ele>
        <time>2020-10-12T09:09:14.164Z</time>
      </trkpt>
      <trkpt lat="48.1447" lon="6.67153">
        <ele>656.6073</ele>
        <time>2020-10-12T09:09:19.633Z</time>
      </trkpt>
      <trkpt lat="48.14469" lon="6.6716">
        <ele>657.710754</ele>
        <time>2020-10-12T09:09:25.211Z</time>
      </trkpt>
      <trkpt lat="48.14471" lon="6.67166">
        <ele>657.437439</ele>
        <time>2020-10-12T09:09:30.624Z</time>
      </trkpt>
      <trkpt lat="48.14471" lon="6.67176">
        <ele>657.194824</ele>
        <time>2020-10-12T09:09:36.157Z</time>
      </trkpt>
      <trkpt lat="48.14471" lon="6.67184">
        <ele>655.495789</ele>
        <time>2020-10-12T09:09:41.889Z</time>
      </trkpt>
      <trkpt lat="48.14471" lon="6.67191">
        <ele>653.133484</ele>
        <time>2020-10-12T09:09:47.154Z</time>
      </trkpt>
      <trkpt lat="48.14472" lon="6.67199">
        <ele>652.219177</ele>
        <time>2020-10-12T09:09:52.410Z</time>
      </trkpt>
      <trkpt lat="48.14473" lon="6.67206">
        <ele>652.203003</ele>
        <time>2020-10-12T09:09:57.644Z</time>
      </trkpt>
      <trkpt lat="48.14473" lon="6.67214">
        <ele>653.281433</ele>
        <time>2020-10-12T09:10:03.280Z</time>
      </trkpt>
      <trkpt lat="48.14471" lon="6.67221">
        <ele>652.353638</ele>
        <time>2020-10-12T09:10:08.570Z</time>
      </trkpt>
      <trkpt lat="48.14469" lon="6.67228">
        <ele>650.690063</ele>
        <time>2020-10-12T09:10:15.741Z</time>
      </trkpt>
      <trkpt lat="48.14469" lon="6.6723">
        <ele>650.690063</ele>
        <time>2020-10-12T09:10:21.581Z</time>
      </trkpt>
      <trkpt lat="48.14468" lon="6.67234">
        <ele>650.635864</ele>
        <time>2020-10-12T09:10:27.149Z</time>
      </trkpt>
      <trkpt lat="48.14466" lon="6.67236">
        <ele>650.635864</ele>
        <time>2020-10-12T09:10:32.749Z</time>
      </trkpt>
      <trkpt lat="48.14465" lon="6.67243">
        <ele>652.787231</ele>
        <time>2020-10-12T09:10:38.182Z</time>
      </trkpt>
      <trkpt lat="48.14461" lon="6.67257">
        <ele>652.46936</ele>
        <time>2020-10-12T09:10:47.760Z</time>
      </trkpt>
      <trkpt lat="48.14459" lon="6.67265">
        <ele>653.178833</ele>
        <time>2020-10-12T09:10:52.940Z</time>
      </trkpt>
      <trkpt lat="48.14456" lon="6.67269">
        <ele>653.788086</ele>
        <time>2020-10-12T09:10:58.162Z</time>
      </trkpt>
      <trkpt lat="48.14455" lon="6.67275">
        <ele>654.053955</ele>
        <time>2020-10-12T09:11:03.188Z</time>
      </trkpt>
      <trkpt lat="48.14456" lon="6.67281">
        <ele>654.021362</ele>
        <time>2020-10-12T09:11:08.990Z</time>
      </trkpt>
      <trkpt lat="48.14459" lon="6.67288">
        <ele>653.514099</ele>
        <time>2020-10-12T09:11:14.979Z</time>
      </trkpt>
      <trkpt lat="48.14462" lon="6.67293">
        <ele>653.262512</ele>
        <time>2020-10-12T09:11:20.420Z</time>
      </trkpt>
      <trkpt lat="48.14464" lon="6.67296">
        <ele>653.336121</ele>
        <time>2020-10-12T09:11:25.690Z</time>
      </trkpt>
      <trkpt lat="48.14466" lon="6.673">
        <ele>653.39502</ele>
        <time>2020-10-12T09:11:30.812Z</time>
      </trkpt>
      <trkpt lat="48.14468" lon="6.67304">
        <ele>653.506104</ele>
        <time>2020-10-12T09:11:36.032Z</time>
      </trkpt>
      <trkpt lat="48.1447" lon="6.6731">
        <ele>653.98291</ele>
        <time>2020-10-12T09:11:41.676Z</time>
      </trkpt>
      <trkpt lat="48.14471" lon="6.67317">
        <ele>654.054871</ele>
        <time>2020-10-12T09:11:47.207Z</time>
      </trkpt>
      <trkpt lat="48.14473" lon="6.67325">
        <ele>654.144897</ele>
        <time>2020-10-12T09:11:52.783Z</time>
      </trkpt>
      <trkpt lat="48.14475" lon="6.67332">
        <ele>653.566589</ele>
        <time>2020-10-12T09:11:58.258Z</time>
      </trkpt>
      <trkpt lat="48.14475" lon="6.67348">
        <ele>655.091919</ele>
        <time>2020-10-12T09:12:08.639Z</time>
      </trkpt>
      <trkpt lat="48.14475" lon="6.67357">
        <ele>655.309204</ele>
        <time>2020-10-12T09:12:14.143Z</time>
      </trkpt>
      <trkpt lat="48.14474" lon="6.67366">
        <ele>654.954407</ele>
        <time>2020-10-12T09:12:19.306Z</time>
      </trkpt>
      <trkpt lat="48.14472" lon="6.67375">
        <ele>655.279907</ele>
        <time>2020-10-12T09:12:25.341Z</time>
      </trkpt>
      <trkpt lat="48.1447" lon="6.67378">
        <ele>655.512756</ele>
        <time>2020-10-12T09:12:30.727Z</time>
      </trkpt>
      <trkpt lat="48.14467" lon="6.67381">
        <ele>654.906799</ele>
        <time>2020-10-12T09:12:35.950Z</time>
      </trkpt>
      <trkpt lat="48.14463" lon="6.67386">
        <ele>654.880371</ele>
        <time>2020-10-12T09:12:40.982Z</time>
      </trkpt>
      <trkpt lat="48.14458" lon="6.67391">
        <ele>654.364258</ele>
        <time>2020-10-12T09:12:46.115Z</time>
      </trkpt>
      <trkpt lat="48.14454" lon="6.67396">
        <ele>653.557678</ele>
        <time>2020-10-12T09:12:51.119Z</time>
      </trkpt>
      <trkpt lat="48.14449" lon="6.67403">
        <ele>652.833923</ele>
        <time>2020-10-12T09:12:56.780Z</time>
      </trkpt>
      <trkpt lat="48.14445" lon="6.6741">
        <ele>652.277283</ele>
        <time>2020-10-12T09:13:02.890Z</time>
      </trkpt>
      <trkpt lat="48.14441" lon="6.67414">
        <ele>651.564087</ele>
        <time>2020-10-12T09:13:08.024Z</time>
      </trkpt>
      <trkpt lat="48.14436" lon="6.6742">
        <ele>651.01825</ele>
        <time>2020-10-12T09:13:13.074Z</time>
      </trkpt>
      <trkpt lat="48.14432" lon="6.67426">
        <ele>651.489563</ele>
        <time>2020-10-12T09:13:18.565Z</time>
      </trkpt>
      <trkpt lat="48.14428" lon="6.67432">
        <ele>651.388245</ele>
        <time>2020-10-12T09:13:24.139Z</time>
      </trkpt>
      <trkpt lat="48.14425" lon="6.6744">
        <ele>652.018494</ele>
        <time>2020-10-12T09:13:30.495Z</time>
      </trkpt>
      <trkpt lat="48.14422" lon="6.67447">
        <ele>651.766602</ele>
        <time>2020-10-12T09:13:36.211Z</time>
      </trkpt>
      <trkpt lat="48.1442" lon="6.67452">
        <ele>652.155701</ele>
        <time>2020-10-12T09:13:41.723Z</time>
      </trkpt>
      <trkpt lat="48.14417" lon="6.67456">
        <ele>653.55127</ele>
        <time>2020-10-12T09:13:47.202Z</time>
      </trkpt>
      <trkpt lat="48.14414" lon="6.6746">
        <ele>654.101379</ele>
        <time>2020-10-12T09:13:52.528Z</time>
      </trkpt>
      <trkpt lat="48.14411" lon="6.67462">
        <ele>654.076538</ele>
        <time>2020-10-12T09:13:57.545Z</time>
      </trkpt>
      <trkpt lat="48.14406" lon="6.67462">
        <ele>653.144958</ele>
        <time>2020-10-12T09:14:02.939Z</time>
      </trkpt>
      <trkpt lat="48.144" lon="6.67463">
        <ele>654.557617</ele>
        <time>2020-10-12T09:14:08.454Z</time>
      </trkpt>
      <trkpt lat="48.14395" lon="6.67466">
        <ele>653.908813</ele>
        <time>2020-10-12T09:14:13.755Z</time>
      </trkpt>
      <trkpt lat="48.14389" lon="6.67469">
        <ele>653.953918</ele>
        <time>2020-10-12T09:14:19.115Z</time>
      </trkpt>
      <trkpt lat="48.14385" lon="6.6747">
        <ele>653.795471</ele>
        <time>2020-10-12T09:14:25.339Z</time>
      </trkpt>
      <trkpt lat="48.14384" lon="6.67469">
        <ele>654.726746</ele>
        <time>2020-10-12T09:14:30.379Z</time>
      </trkpt>
      <trkpt lat="48.14382" lon="6.67469">
        <ele>655.889221</ele>
        <time>2020-10-12T09:14:35.399Z</time>
      </trkpt>
      <trkpt lat="48.1438" lon="6.6747">
        <ele>657.854675</ele>
        <time>2020-10-12T09:15:08.173Z</time>
      </trkpt>
      <trkpt lat="48.14379" lon="6.67467">
        <ele>658.334473</ele>
        <time>2020-10-12T09:15:13.430Z</time>
      </trkpt>
      <trkpt lat="48.14375" lon="6.67467">
        <ele>658.79718</ele>
        <time>2020-10-12T09:15:18.922Z</time>
      </trkpt>
      <trkpt lat="48.14373" lon="6.6747">
        <ele>658.741028</ele>
        <time>2020-10-12T09:15:23.987Z</time>
      </trkpt>
      <trkpt lat="48.14369" lon="6.67475">
        <ele>658.705933</ele>
        <time>2020-10-12T09:15:29.471Z</time>
      </trkpt>
      <trkpt lat="48.14364" lon="6.67479">
        <ele>658.13208</ele>
        <time>2020-10-12T09:15:34.857Z</time>
      </trkpt>
      <trkpt lat="48.1436" lon="6.67486">
        <ele>656.721497</ele>
        <time>2020-10-12T09:15:40.732Z</time>
      </trkpt>
      <trkpt lat="48.14358" lon="6.67494">
        <ele>656.721497</ele>
        <time>2020-10-12T09:15:46.112Z</time>
      </trkpt>
      <trkpt lat="48.14357" lon="6.67496">
        <ele>656.721497</ele>
        <time>2020-10-12T09:15:51.124Z</time>
      </trkpt>
      <trkpt lat="48.14358" lon="6.67497">
        <ele>654.506287</ele>
        <time>2020-10-12T09:16:12.137Z</time>
      </trkpt>
      <trkpt lat="48.14357" lon="6.67497">
        <ele>654.362427</ele>
        <time>2020-10-12T09:16:18.498Z</time>
      </trkpt>
      <trkpt lat="48.14353" lon="6.67503">
        <ele>653.443787</ele>
        <time>2020-10-12T09:16:24.181Z</time>
      </trkpt>
      <trkpt lat="48.14347" lon="6.6751">
        <ele>651.920532</ele>
        <time>2020-10-12T09:16:29.192Z</time>
      </trkpt>
      <trkpt lat="48.14336" lon="6.67521">
        <ele>651.683044</ele>
        <time>2020-10-12T09:16:39.221Z</time>
      </trkpt>
      <trkpt lat="48.14331" lon="6.67526">
        <ele>651.523621</ele>
        <time>2020-10-12T09:16:45.166Z</time>
      </trkpt>
      <trkpt lat="48.14327" lon="6.6753">
        <ele>651.816833</ele>
        <time>2020-10-12T09:16:50.609Z</time>
      </trkpt>
      <trkpt lat="48.14322" lon="6.67534">
        <ele>652.606323</ele>
        <time>2020-10-12T09:16:55.670Z</time>
      </trkpt>
      <trkpt lat="48.14318" lon="6.67538">
        <ele>652.418457</ele>
        <time>2020-10-12T09:17:01.321Z</time>
      </trkpt>
      <trkpt lat="48.14315" lon="6.6754">
        <ele>652.418457</ele>
        <time>2020-10-12T09:17:06.619Z</time>
      </trkpt>
      <trkpt lat="48.1431" lon="6.67548">
        <ele>651.31543</ele>
        <time>2020-10-12T09:17:16.886Z</time>
      </trkpt>
      <trkpt lat="48.14307" lon="6.67551">
        <ele>650.353821</ele>
        <time>2020-10-12T09:17:22.833Z</time>
      </trkpt>
      <trkpt lat="48.14304" lon="6.67554">
        <ele>650.60083</ele>
        <time>2020-10-12T09:17:27.965Z</time>
      </trkpt>
      <trkpt lat="48.143" lon="6.67558">
        <ele>649.305908</ele>
        <time>2020-10-12T09:17:33.161Z</time>
      </trkpt>
      <trkpt lat="48.14293" lon="6.67562">
        <ele>649.027161</ele>
        <time>2020-10-12T09:17:39.170Z</time>
      </trkpt>
      <trkpt lat="48.14287" lon="6.67568">
        <ele>648.374146</ele>
        <time>2020-10-12T09:17:44.486Z</time>
      </trkpt>
      <trkpt lat="48.14283" lon="6.67576">
        <ele>648.646057</ele>
        <time>2020-10-12T09:17:49.967Z</time>
      </trkpt>
      <trkpt lat="48.14277" lon="6.67581">
        <ele>648.361023</ele>
        <time>2020-10-12T09:17:55.144Z</time>
      </trkpt>
      <trkpt lat="48.14274" lon="6.6759">
        <ele>648.406982</ele>
        <time>2020-10-12T09:18:00.615Z</time>
      </trkpt>
      <trkpt lat="48.14271" lon="6.67599">
        <ele>649.315063</ele>
        <time>2020-10-12T09:18:05.634Z</time>
      </trkpt>
      <trkpt lat="48.14268" lon="6.67606">
        <ele>647.681091</ele>
        <time>2020-10-12T09:18:11.175Z</time>
      </trkpt>
      <trkpt lat="48.14264" lon="6.67614">
        <ele>647.319397</ele>
        <time>2020-10-12T09:18:16.862Z</time>
      </trkpt>
      <trkpt lat="48.14262" lon="6.67621">
        <ele>647.261108</ele>
        <time>2020-10-12T09:18:22.118Z</time>
      </trkpt>
      <trkpt lat="48.1426" lon="6.67628">
        <ele>644.938477</ele>
        <time>2020-10-12T09:18:27.155Z</time>
      </trkpt>
      <trkpt lat="48.14259" lon="6.67636">
        <ele>644.056946</ele>
        <time>2020-10-12T09:18:33.219Z</time>
      </trkpt>
      <trkpt lat="48.14258" lon="6.67642">
        <ele>643.599243</ele>
        <time>2020-10-12T09:18:38.358Z</time>
      </trkpt>
      <trkpt lat="48.14257" lon="6.67646">
        <ele>643.152222</ele>
        <time>2020-10-12T09:18:43.443Z</time>
      </trkpt>
      <trkpt lat="48.14257" lon="6.67652">
        <ele>641.727234</ele>
        <time>2020-10-12T09:18:48.488Z</time>
      </trkpt>
      <trkpt lat="48.14256" lon="6.6766">
        <ele>639.907898</ele>
        <time>2020-10-12T09:18:53.973Z</time>
      </trkpt>
      <trkpt lat="48.14255" lon="6.67666">
        <ele>638.677795</ele>
        <time>2020-10-12T09:18:59.612Z</time>
      </trkpt>
      <trkpt lat="48.14254" lon="6.67673">
        <ele>638.164917</ele>
        <time>2020-10-12T09:19:04.704Z</time>
      </trkpt>
      <trkpt lat="48.14253" lon="6.6768">
        <ele>638.834839</ele>
        <time>2020-10-12T09:19:09.787Z</time>
      </trkpt>
      <trkpt lat="48.14252" lon="6.67688">
        <ele>638.831299</ele>
        <time>2020-10-12T09:19:15.381Z</time>
      </trkpt>
      <trkpt lat="48.14252" lon="6.67696">
        <ele>638.541077</ele>
        <time>2020-10-12T09:19:21.010Z</time>
      </trkpt>
      <trkpt lat="48.14249" lon="6.67702">
        <ele>636.461365</ele>
        <time>2020-10-12T09:19:26.018Z</time>
      </trkpt>
      <trkpt lat="48.14247" lon="6.67708">
        <ele>635.058899</ele>
        <time>2020-10-12T09:19:31.532Z</time>
      </trkpt>
      <trkpt lat="48.14244" lon="6.67711">
        <ele>634.414551</ele>
        <time>2020-10-12T09:19:37.149Z</time>
      </trkpt>
      <trkpt lat="48.14242" lon="6.67715">
        <ele>634.269531</ele>
        <time>2020-10-12T09:19:42.177Z</time>
      </trkpt>
      <trkpt lat="48.14239" lon="6.67719">
        <ele>633.052673</ele>
        <time>2020-10-12T09:19:47.430Z</time>
      </trkpt>
      <trkpt lat="48.14234" lon="6.67727">
        <ele>631.410095</ele>
        <time>2020-10-12T09:19:53.751Z</time>
      </trkpt>
      <trkpt lat="48.14229" lon="6.67731">
        <ele>629.774231</ele>
        <time>2020-10-12T09:19:59.187Z</time>
      </trkpt>
      <trkpt lat="48.14225" lon="6.67735">
        <ele>628.801453</ele>
        <time>2020-10-12T09:20:04.907Z</time>
      </trkpt>
      <trkpt lat="48.14221" lon="6.6774">
        <ele>626.992004</ele>
        <time>2020-10-12T09:20:10.885Z</time>
      </trkpt>
      <trkpt lat="48.14217" lon="6.67745">
        <ele>626.658691</ele>
        <time>2020-10-12T09:20:16.095Z</time>
      </trkpt>
      <trkpt lat="48.14213" lon="6.67749">
        <ele>624.582581</ele>
        <time>2020-10-12T09:20:21.203Z</time>
      </trkpt>
      <trkpt lat="48.14209" lon="6.67754">
        <ele>623.149292</ele>
        <time>2020-10-12T09:20:26.571Z</time>
      </trkpt>
      <trkpt lat="48.14204" lon="6.67759">
        <ele>622.393127</ele>
        <time>2020-10-12T09:20:31.952Z</time>
      </trkpt>
      <trkpt lat="48.142" lon="6.67765">
        <ele>622.557922</ele>
        <time>2020-10-12T09:20:37.157Z</time>
      </trkpt>
      <trkpt lat="48.14196" lon="6.6777">
        <ele>622.891052</ele>
        <time>2020-10-12T09:20:42.399Z</time>
      </trkpt>
      <trkpt lat="48.14193" lon="6.67776">
        <ele>622.716614</ele>
        <time>2020-10-12T09:20:47.558Z</time>
      </trkpt>
      <trkpt lat="48.14192" lon="6.67784">
        <ele>622.459534</ele>
        <time>2020-10-12T09:20:52.689Z</time>
      </trkpt>
      <trkpt lat="48.14191" lon="6.67792">
        <ele>622.346741</ele>
        <time>2020-10-12T09:20:58.183Z</time>
      </trkpt>
      <trkpt lat="48.14191" lon="6.678">
        <ele>622.297791</ele>
        <time>2020-10-12T09:21:03.729Z</time>
      </trkpt>
      <trkpt lat="48.1419" lon="6.67807">
        <ele>621.679321</ele>
        <time>2020-10-12T09:21:09.156Z</time>
      </trkpt>
      <trkpt lat="48.14189" lon="6.67814">
        <ele>621.670349</ele>
        <time>2020-10-12T09:21:14.706Z</time>
      </trkpt>
      <trkpt lat="48.14187" lon="6.67822">
        <ele>621.235229</ele>
        <time>2020-10-12T09:21:20.124Z</time>
      </trkpt>
      <trkpt lat="48.14185" lon="6.67827">
        <ele>620.753418</ele>
        <time>2020-10-12T09:21:25.535Z</time>
      </trkpt>
      <trkpt lat="48.14183" lon="6.67834">
        <ele>621.457764</ele>
        <time>2020-10-12T09:21:31.050Z</time>
      </trkpt>
      <trkpt lat="48.1418" lon="6.67842">
        <ele>622.722107</ele>
        <time>2020-10-12T09:21:36.470Z</time>
      </trkpt>
      <trkpt lat="48.14177" lon="6.67851">
        <ele>623.522278</ele>
        <time>2020-10-12T09:21:42.162Z</time>
      </trkpt>
      <trkpt lat="48.14175" lon="6.67857">
        <ele>623.963806</ele>
        <time>2020-10-12T09:21:47.191Z</time>
      </trkpt>
      <trkpt lat="48.14172" lon="6.67864">
        <ele>623.957947</ele>
        <time>2020-10-12T09:21:52.338Z</time>
      </trkpt>
      <trkpt lat="48.1417" lon="6.67871">
        <ele>623.659607</ele>
        <time>2020-10-12T09:21:57.659Z</time>
      </trkpt>
      <trkpt lat="48.14167" lon="6.67879">
        <ele>623.540771</ele>
        <time>2020-10-12T09:22:03.171Z</time>
      </trkpt>
      <trkpt lat="48.14165" lon="6.67884">
        <ele>622.379028</ele>
        <time>2020-10-12T09:22:08.323Z</time>
      </trkpt>
      <trkpt lat="48.14162" lon="6.67892">
        <ele>621.774048</ele>
        <time>2020-10-12T09:22:13.584Z</time>
      </trkpt>
      <trkpt lat="48.14159" lon="6.67897">
        <ele>621.052856</ele>
        <time>2020-10-12T09:22:18.798Z</time>
      </trkpt>
      <trkpt lat="48.14156" lon="6.67903">
        <ele>619.949463</ele>
        <time>2020-10-12T09:22:24.042Z</time>
      </trkpt>
      <trkpt lat="48.14152" lon="6.67909">
        <ele>618.071106</ele>
        <time>2020-10-12T09:22:29.178Z</time>
      </trkpt>
      <trkpt lat="48.14147" lon="6.67916">
        <ele>618.008118</ele>
        <time>2020-10-12T09:22:34.490Z</time>
      </trkpt>
      <trkpt lat="48.14143" lon="6.67923">
        <ele>618.479187</ele>
        <time>2020-10-12T09:22:39.616Z</time>
      </trkpt>
      <trkpt lat="48.14139" lon="6.6793">
        <ele>619.220337</ele>
        <time>2020-10-12T09:22:45.180Z</time>
      </trkpt>
      <trkpt lat="48.14135" lon="6.67937">
        <ele>619.493347</ele>
        <time>2020-10-12T09:22:50.985Z</time>
      </trkpt>
      <trkpt lat="48.14133" lon="6.67941">
        <ele>619.493347</ele>
        <time>2020-10-12T09:22:56.193Z</time>
      </trkpt>
      <trkpt lat="48.14129" lon="6.67944">
        <ele>619.464478</ele>
        <time>2020-10-12T09:23:01.466Z</time>
      </trkpt>
      <trkpt lat="48.14126" lon="6.67951">
        <ele>619.841003</ele>
        <time>2020-10-12T09:23:06.644Z</time>
      </trkpt>
      <trkpt lat="48.14125" lon="6.67956">
        <ele>619.841003</ele>
        <time>2020-10-12T09:23:12.184Z</time>
      </trkpt>
      <trkpt lat="48.14124" lon="6.67961">
        <ele>619.968628</ele>
        <time>2020-10-12T09:23:17.636Z</time>
      </trkpt>
      <trkpt lat="48.14122" lon="6.67965">
        <ele>618.771667</ele>
        <time>2020-10-12T09:23:23.142Z</time>
      </trkpt>
      <trkpt lat="48.1412" lon="6.67966">
        <ele>618.617493</ele>
        <time>2020-10-12T09:23:28.292Z</time>
      </trkpt>
      <trkpt lat="48.14118" lon="6.6797">
        <ele>617.886841</ele>
        <time>2020-10-12T09:23:33.477Z</time>
      </trkpt>
      <trkpt lat="48.14117" lon="6.67974">
        <ele>617.886841</ele>
        <time>2020-10-12T09:23:38.902Z</time>
      </trkpt>
      <trkpt lat="48.14115" lon="6.67978">
        <ele>618.641357</ele>
        <time>2020-10-12T09:23:44.609Z</time>
      </trkpt>
      <trkpt lat="48.14113" lon="6.67982">
        <ele>618.596558</ele>
        <time>2020-10-12T09:23:50.175Z</time>
      </trkpt>
      <trkpt lat="48.14111" lon="6.67986">
        <ele>619.032959</ele>
        <time>2020-10-12T09:23:55.982Z</time>
      </trkpt>
      <trkpt lat="48.14109" lon="6.67982">
        <ele>617.406372</ele>
        <time>2020-10-12T09:24:13.118Z</time>
      </trkpt>
      <trkpt lat="48.14109" lon="6.67984">
        <ele>617.406372</ele>
        <time>2020-10-12T09:24:18.138Z</time>
      </trkpt>
      <trkpt lat="48.14106" lon="6.67985">
        <ele>619.188232</ele>
        <time>2020-10-12T09:24:57.632Z</time>
      </trkpt>
      <trkpt lat="48.14104" lon="6.67987">
        <ele>619.332703</ele>
        <time>2020-10-12T09:25:02.858Z</time>
      </trkpt>
      <trkpt lat="48.14103" lon="6.67988">
        <ele>618.618103</ele>
        <time>2020-10-12T09:25:09.161Z</time>
      </trkpt>
      <trkpt lat="48.14098" lon="6.67992">
        <ele>618.421204</ele>
        <time>2020-10-12T09:25:14.437Z</time>
      </trkpt>
      <trkpt lat="48.14094" lon="6.67995">
        <ele>617.781921</ele>
        <time>2020-10-12T09:25:19.761Z</time>
      </trkpt>
      <trkpt lat="48.14088" lon="6.67997">
        <ele>617.220703</ele>
        <time>2020-10-12T09:25:24.890Z</time>
      </trkpt>
      <trkpt lat="48.14082" lon="6.67997">
        <ele>616.921753</ele>
        <time>2020-10-12T09:25:30.171Z</time>
      </trkpt>
      <trkpt lat="48.14076" lon="6.67997">
        <ele>616.942383</ele>
        <time>2020-10-12T09:25:35.652Z</time>
      </trkpt>
      <trkpt lat="48.1407" lon="6.67992">
        <ele>617.313782</ele>
        <time>2020-10-12T09:25:41.198Z</time>
      </trkpt>
      <trkpt lat="48.14065" lon="6.6799">
        <ele>616.787476</ele>
        <time>2020-10-12T09:25:46.570Z</time>
      </trkpt>
      <trkpt lat="48.1406" lon="6.67985">
        <ele>616.64917</ele>
        <time>2020-10-12T09:25:52.175Z</time>
      </trkpt>
      <trkpt lat="48.1406" lon="6.67982">
        <ele>616.64917</ele>
        <time>2020-10-12T09:25:58.175Z</time>
      </trkpt>
      <trkpt lat="48.14057" lon="6.67982">
        <ele>615.448608</ele>
        <time>2020-10-12T09:26:13.453Z</time>
      </trkpt>
      <trkpt lat="48.14047" lon="6.67988">
        <ele>612.270142</ele>
        <time>2020-10-12T09:26:24.108Z</time>
      </trkpt>
      <trkpt lat="48.14042" lon="6.67989">
        <ele>609.793762</ele>
        <time>2020-10-12T09:26:29.431Z</time>
      </trkpt>
      <trkpt lat="48.14039" lon="6.67992">
        <ele>609.394409</ele>
        <time>2020-10-12T09:26:35.151Z</time>
      </trkpt>
      <trkpt lat="48.14034" lon="6.67993">
        <ele>610.544922</ele>
        <time>2020-10-12T09:26:40.536Z</time>
      </trkpt>
      <trkpt lat="48.14031" lon="6.67994">
        <ele>612.812317</ele>
        <time>2020-10-12T09:26:46.010Z</time>
      </trkpt>
      <trkpt lat="48.14024" lon="6.67997">
        <ele>612.68927</ele>
        <time>2020-10-12T09:26:53.075Z</time>
      </trkpt>
      <trkpt lat="48.14019" lon="6.68">
        <ele>613.662598</ele>
        <time>2020-10-12T09:26:58.481Z</time>
      </trkpt>
      <trkpt lat="48.14013" lon="6.68004">
        <ele>613.831604</ele>
        <time>2020-10-12T09:27:04.855Z</time>
      </trkpt>
      <trkpt lat="48.14011" lon="6.68005">
        <ele>614.262695</ele>
        <time>2020-10-12T09:27:09.909Z</time>
      </trkpt>
      <trkpt lat="48.14006" lon="6.68008">
        <ele>614.093445</ele>
        <time>2020-10-12T09:27:14.977Z</time>
      </trkpt>
      <trkpt lat="48.13999" lon="6.68011">
        <ele>613.380981</ele>
        <time>2020-10-12T09:27:20.015Z</time>
      </trkpt>
      <trkpt lat="48.13994" lon="6.68015">
        <ele>612.716797</ele>
        <time>2020-10-12T09:27:25.069Z</time>
      </trkpt>
      <trkpt lat="48.13987" lon="6.68021">
        <ele>611.794006</ele>
        <time>2020-10-12T09:27:30.557Z</time>
      </trkpt>
      <trkpt lat="48.13982" lon="6.68026">
        <ele>610.264099</ele>
        <time>2020-10-12T09:27:35.578Z</time>
      </trkpt>
      <trkpt lat="48.13976" lon="6.68032">
        <ele>608.564819</ele>
        <time>2020-10-12T09:27:41.009Z</time>
      </trkpt>
      <trkpt lat="48.13971" lon="6.68037">
        <ele>606.691772</ele>
        <time>2020-10-12T09:27:46.132Z</time>
      </trkpt>
      <trkpt lat="48.13967" lon="6.68038">
        <ele>606.040466</ele>
        <time>2020-10-12T09:27:51.440Z</time>
      </trkpt>
      <trkpt lat="48.13964" lon="6.68045">
        <ele>605.391968</ele>
        <time>2020-10-12T09:27:56.747Z</time>
      </trkpt>
      <trkpt lat="48.1396" lon="6.68051">
        <ele>605.229126</ele>
        <time>2020-10-12T09:28:02.202Z</time>
      </trkpt>
      <trkpt lat="48.13957" lon="6.68057">
        <ele>604.859192</ele>
        <time>2020-10-12T09:28:07.739Z</time>
      </trkpt>
      <trkpt lat="48.13954" lon="6.68061">
        <ele>603.711182</ele>
        <time>2020-10-12T09:28:12.853Z</time>
      </trkpt>
      <trkpt lat="48.13952" lon="6.68066">
        <ele>602.947693</ele>
        <time>2020-10-12T09:28:18.244Z</time>
      </trkpt>
      <trkpt lat="48.1395" lon="6.68071">
        <ele>602.598145</ele>
        <time>2020-10-12T09:28:23.246Z</time>
      </trkpt>
      <trkpt lat="48.13949" lon="6.68078">
        <ele>602.598145</ele>
        <time>2020-10-12T09:28:28.665Z</time>
      </trkpt>
      <trkpt lat="48.13949" lon="6.68085">
        <ele>602.19104</ele>
        <time>2020-10-12T09:28:33.831Z</time>
      </trkpt>
      <trkpt lat="48.13949" lon="6.68092">
        <ele>600.279724</ele>
        <time>2020-10-12T09:28:38.933Z</time>
      </trkpt>
      <trkpt lat="48.13949" lon="6.681">
        <ele>598.845764</ele>
        <time>2020-10-12T09:28:44.146Z</time>
      </trkpt>
      <trkpt lat="48.1395" lon="6.68106">
        <ele>597.701233</ele>
        <time>2020-10-12T09:28:49.700Z</time>
      </trkpt>
      <trkpt lat="48.13952" lon="6.68111">
        <ele>597.21521</ele>
        <time>2020-10-12T09:28:54.960Z</time>
      </trkpt>
      <trkpt lat="48.13952" lon="6.68118">
        <ele>596.910706</ele>
        <time>2020-10-12T09:28:59.976Z</time>
      </trkpt>
      <trkpt lat="48.1395" lon="6.68123">
        <ele>596.329041</ele>
        <time>2020-10-12T09:29:05.281Z</time>
      </trkpt>
      <trkpt lat="48.13948" lon="6.68131">
        <ele>595.488281</ele>
        <time>2020-10-12T09:29:10.628Z</time>
      </trkpt>
      <trkpt lat="48.13947" lon="6.68138">
        <ele>594.568604</ele>
        <time>2020-10-12T09:29:16.178Z</time>
      </trkpt>
      <trkpt lat="48.13945" lon="6.68143">
        <ele>592.452942</ele>
        <time>2020-10-12T09:29:21.710Z</time>
      </trkpt>
      <trkpt lat="48.13943" lon="6.68148">
        <ele>591.863831</ele>
        <time>2020-10-12T09:29:27.150Z</time>
      </trkpt>
      <trkpt lat="48.13942" lon="6.68155">
        <ele>591.853455</ele>
        <time>2020-10-12T09:29:32.491Z</time>
      </trkpt>
      <trkpt lat="48.1394" lon="6.68162">
        <ele>591.853455</ele>
        <time>2020-10-12T09:29:37.598Z</time>
      </trkpt>
      <trkpt lat="48.13939" lon="6.68169">
        <ele>590.231812</ele>
        <time>2020-10-12T09:29:43.210Z</time>
      </trkpt>
      <trkpt lat="48.13937" lon="6.68176">
        <ele>587.629883</ele>
        <time>2020-10-12T09:29:48.543Z</time>
      </trkpt>
      <trkpt lat="48.13935" lon="6.68184">
        <ele>585.504211</ele>
        <time>2020-10-12T09:29:53.673Z</time>
      </trkpt>
      <trkpt lat="48.13935" lon="6.68193">
        <ele>584.237061</ele>
        <time>2020-10-12T09:29:58.898Z</time>
      </trkpt>
      <trkpt lat="48.13935" lon="6.68201">
        <ele>583.019348</ele>
        <time>2020-10-12T09:30:04.247Z</time>
      </trkpt>
      <trkpt lat="48.13935" lon="6.6821">
        <ele>582.009827</ele>
        <time>2020-10-12T09:30:09.646Z</time>
      </trkpt>
      <trkpt lat="48.13935" lon="6.68218">
        <ele>579.715149</ele>
        <time>2020-10-12T09:30:14.839Z</time>
      </trkpt>
      <trkpt lat="48.13936" lon="6.68226">
        <ele>579.123413</ele>
        <time>2020-10-12T09:30:20.932Z</time>
      </trkpt>
      <trkpt lat="48.13937" lon="6.68231">
        <ele>578.691162</ele>
        <time>2020-10-12T09:30:26.119Z</time>
      </trkpt>
      <trkpt lat="48.13938" lon="6.68239">
        <ele>576.727234</ele>
        <time>2020-10-12T09:30:31.541Z</time>
      </trkpt>
      <trkpt lat="48.13936" lon="6.68246">
        <ele>573.195313</ele>
        <time>2020-10-12T09:30:36.810Z</time>
      </trkpt>
      <trkpt lat="48.13931" lon="6.68251">
        <ele>570.017639</ele>
        <time>2020-10-12T09:30:42.626Z</time>
      </trkpt>
      <trkpt lat="48.13919" lon="6.68239">
        <ele>565.036011</ele>
        <time>2020-10-12T09:30:53.058Z</time>
      </trkpt>
      <trkpt lat="48.13917" lon="6.68231">
        <ele>564.702881</ele>
        <time>2020-10-12T09:30:58.560Z</time>
      </trkpt>
      <trkpt lat="48.13913" lon="6.68224">
        <ele>564.211243</ele>
        <time>2020-10-12T09:31:03.926Z</time>
      </trkpt>
      <trkpt lat="48.1391" lon="6.68217">
        <ele>562.959351</ele>
        <time>2020-10-12T09:31:10.711Z</time>
      </trkpt>
      <trkpt lat="48.13912" lon="6.68217">
        <ele>562.875671</ele>
        <time>2020-10-12T09:31:16.204Z</time>
      </trkpt>
      <trkpt lat="48.13915" lon="6.68216">
        <ele>563.085449</ele>
        <time>2020-10-12T09:31:22.897Z</time>
      </trkpt>
      <trkpt lat="48.13914" lon="6.68218">
        <ele>563.085449</ele>
        <time>2020-10-12T09:31:31.967Z</time>
      </trkpt>
      <trkpt lat="48.13914" lon="6.68215">
        <ele>562.434326</ele>
        <time>2020-10-12T09:31:37.137Z</time>
      </trkpt>
      <trkpt lat="48.13915" lon="6.68208">
        <ele>562.248901</ele>
        <time>2020-10-12T09:31:42.319Z</time>
      </trkpt>
      <trkpt lat="48.13917" lon="6.68202">
        <ele>562.159363</ele>
        <time>2020-10-12T09:31:47.364Z</time>
      </trkpt>
      <trkpt lat="48.13916" lon="6.68195">
        <ele>562.541931</ele>
        <time>2020-10-12T09:31:52.614Z</time>
      </trkpt>
      <trkpt lat="48.13915" lon="6.68185">
        <ele>561.866333</ele>
        <time>2020-10-12T09:31:58.250Z</time>
      </trkpt>
      <trkpt lat="48.1391" lon="6.68175">
        <ele>560.709473</ele>
        <time>2020-10-12T09:32:03.634Z</time>
      </trkpt>
      <trkpt lat="48.13905" lon="6.68167">
        <ele>559.883118</ele>
        <time>2020-10-12T09:32:08.648Z</time>
      </trkpt>
      <trkpt lat="48.139" lon="6.6816">
        <ele>559.605042</ele>
        <time>2020-10-12T09:32:14.423Z</time>
      </trkpt>
      <trkpt lat="48.13897" lon="6.68153">
        <ele>559.000916</ele>
        <time>2020-10-12T09:32:19.934Z</time>
      </trkpt>
      <trkpt lat="48.13895" lon="6.68145">
        <ele>557.488953</ele>
        <time>2020-10-12T09:32:25.481Z</time>
      </trkpt>
      <trkpt lat="48.13892" lon="6.68137">
        <ele>557.5354</ele>
        <time>2020-10-12T09:32:30.788Z</time>
      </trkpt>
      <trkpt lat="48.13887" lon="6.68131">
        <ele>558.012024</ele>
        <time>2020-10-12T09:32:36.132Z</time>
      </trkpt>
      <trkpt lat="48.13882" lon="6.68125">
        <ele>556.482239</ele>
        <time>2020-10-12T09:32:42.083Z</time>
      </trkpt>
      <trkpt lat="48.13879" lon="6.68118">
        <ele>554.641663</ele>
        <time>2020-10-12T09:32:47.092Z</time>
      </trkpt>
      <trkpt lat="48.13877" lon="6.6811">
        <ele>552.755127</ele>
        <time>2020-10-12T09:32:52.389Z</time>
      </trkpt>
      <trkpt lat="48.13874" lon="6.68101">
        <ele>551.604492</ele>
        <time>2020-10-12T09:32:57.619Z</time>
      </trkpt>
      <trkpt lat="48.13872" lon="6.68092">
        <ele>550.382996</ele>
        <time>2020-10-12T09:33:02.953Z</time>
      </trkpt>
      <trkpt lat="48.13868" lon="6.68083">
        <ele>550.018799</ele>
        <time>2020-10-12T09:33:08.292Z</time>
      </trkpt>
      <trkpt lat="48.13865" lon="6.68075">
        <ele>549.552795</ele>
        <time>2020-10-12T09:33:13.680Z</time>
      </trkpt>
      <trkpt lat="48.13863" lon="6.68067">
        <ele>549.207397</ele>
        <time>2020-10-12T09:33:18.884Z</time>
      </trkpt>
      <trkpt lat="48.13862" lon="6.68061">
        <ele>548.013672</ele>
        <time>2020-10-12T09:33:24.144Z</time>
      </trkpt>
      <trkpt lat="48.13862" lon="6.68052">
        <ele>547.348694</ele>
        <time>2020-10-12T09:33:29.406Z</time>
      </trkpt>
      <trkpt lat="48.13862" lon="6.68043">
        <ele>547.214661</ele>
        <time>2020-10-12T09:33:34.437Z</time>
      </trkpt>
      <trkpt lat="48.13863" lon="6.68034">
        <ele>544.366943</ele>
        <time>2020-10-12T09:33:39.786Z</time>
      </trkpt>
      <trkpt lat="48.1386" lon="6.68032">
        <ele>544.46759</ele>
        <time>2020-10-12T09:33:46.172Z</time>
      </trkpt>
      <trkpt lat="48.13861" lon="6.68028">
        <ele>543.263428</ele>
        <time>2020-10-12T09:34:06.611Z</time>
      </trkpt>
      <trkpt lat="48.1386" lon="6.68019">
        <ele>542.346985</ele>
        <time>2020-10-12T09:34:12.530Z</time>
      </trkpt>
      <trkpt lat="48.13858" lon="6.6801">
        <ele>541.935791</ele>
        <time>2020-10-12T09:34:17.869Z</time>
      </trkpt>
      <trkpt lat="48.13855" lon="6.68002">
        <ele>541.963501</ele>
        <time>2020-10-12T09:34:23.214Z</time>
      </trkpt>
      <trkpt lat="48.13853" lon="6.67995">
        <ele>541.580017</ele>
        <time>2020-10-12T09:34:28.287Z</time>
      </trkpt>
      <trkpt lat="48.13852" lon="6.67986">
        <ele>541.47229</ele>
        <time>2020-10-12T09:34:33.914Z</time>
      </trkpt>
      <trkpt lat="48.13851" lon="6.67976">
        <ele>541.162781</ele>
        <time>2020-10-12T09:34:39.339Z</time>
      </trkpt>
      <trkpt lat="48.13848" lon="6.67968">
        <ele>541.090149</ele>
        <time>2020-10-12T09:34:44.683Z</time>
      </trkpt>
      <trkpt lat="48.13849" lon="6.67961">
        <ele>540.856934</ele>
        <time>2020-10-12T09:34:51.186Z</time>
      </trkpt>
      <trkpt lat="48.1385" lon="6.67958">
        <ele>541.47406</ele>
        <time>2020-10-12T09:35:16.192Z</time>
      </trkpt>
      <trkpt lat="48.13852" lon="6.67961">
        <ele>540.630371</ele>
        <time>2020-10-12T09:35:43.249Z</time>
      </trkpt>
      <trkpt lat="48.13851" lon="6.67952">
        <ele>540.531738</ele>
        <time>2020-10-12T09:35:48.449Z</time>
      </trkpt>
      <trkpt lat="48.1385" lon="6.67943">
        <ele>541.104797</ele>
        <time>2020-10-12T09:35:53.579Z</time>
      </trkpt>
      <trkpt lat="48.13847" lon="6.67935">
        <ele>541.005798</ele>
        <time>2020-10-12T09:35:58.706Z</time>
      </trkpt>
      <trkpt lat="48.13846" lon="6.67933">
        <ele>540.88147</ele>
        <time>2020-10-12T09:36:06.200Z</time>
      </trkpt>
      <trkpt lat="48.13842" lon="6.67929">
        <ele>539.571472</ele>
        <time>2020-10-12T09:36:12.048Z</time>
      </trkpt>
      <trkpt lat="48.13837" lon="6.67921">
        <ele>538.937927</ele>
        <time>2020-10-12T09:36:17.299Z</time>
      </trkpt>
      <trkpt lat="48.1383" lon="6.6792">
        <ele>538.016235</ele>
        <time>2020-10-12T09:36:22.619Z</time>
      </trkpt>
      <trkpt lat="48.13825" lon="6.6792">
        <ele>537.950684</ele>
        <time>2020-10-12T09:36:28.420Z</time>
      </trkpt>
      <trkpt lat="48.13821" lon="6.67925">
        <ele>537.392029</ele>
        <time>2020-10-12T09:36:33.736Z</time>
      </trkpt>
      <trkpt lat="48.13817" lon="6.67932">
        <ele>537.391357</ele>
        <time>2020-10-12T09:36:38.964Z</time>
      </trkpt>
      <trkpt lat="48.13814" lon="6.67939">
        <ele>537.234131</ele>
        <time>2020-10-12T09:36:44.004Z</time>
      </trkpt>
      <trkpt lat="48.13811" lon="6.67948">
        <ele>537.024963</ele>
        <time>2020-10-12T09:36:49.462Z</time>
      </trkpt>
      <trkpt lat="48.13807" lon="6.67956">
        <ele>536.356384</ele>
        <time>2020-10-12T09:36:54.967Z</time>
      </trkpt>
      <trkpt lat="48.13803" lon="6.67964">
        <ele>535.123657</ele>
        <time>2020-10-12T09:37:00.535Z</time>
      </trkpt>
      <trkpt lat="48.13799" lon="6.67969">
        <ele>534.041443</ele>
        <time>2020-10-12T09:37:05.981Z</time>
      </trkpt>
      <trkpt lat="48.13796" lon="6.67974">
        <ele>533.488037</ele>
        <time>2020-10-12T09:37:11.126Z</time>
      </trkpt>
      <trkpt lat="48.13794" lon="6.6798">
        <ele>532.04126</ele>
        <time>2020-10-12T09:37:16.153Z</time>
      </trkpt>
      <trkpt lat="48.13791" lon="6.67987">
        <ele>531.588928</ele>
        <time>2020-10-12T09:37:21.875Z</time>
      </trkpt>
      <trkpt lat="48.13787" lon="6.67992">
        <ele>530.629089</ele>
        <time>2020-10-12T09:37:27.422Z</time>
      </trkpt>
      <trkpt lat="48.13783" lon="6.67997">
        <ele>528.394592</ele>
        <time>2020-10-12T09:37:32.752Z</time>
      </trkpt>
      <trkpt lat="48.13778" lon="6.68001">
        <ele>526.637207</ele>
        <time>2020-10-12T09:37:38.015Z</time>
      </trkpt>
      <trkpt lat="48.13773" lon="6.68007">
        <ele>523.98175</ele>
        <time>2020-10-12T09:37:43.318Z</time>
      </trkpt>
      <trkpt lat="48.13767" lon="6.6801">
        <ele>521.11731</ele>
        <time>2020-10-12T09:37:48.551Z</time>
      </trkpt>
      <trkpt lat="48.1376" lon="6.68011">
        <ele>518.682007</ele>
        <time>2020-10-12T09:37:53.920Z</time>
      </trkpt>
      <trkpt lat="48.13756" lon="6.68011">
        <ele>518.229187</ele>
        <time>2020-10-12T09:37:59.330Z</time>
      </trkpt>
      <trkpt lat="48.13751" lon="6.68012">
        <ele>518.93634</ele>
        <time>2020-10-12T09:38:04.578Z</time>
      </trkpt>
      <trkpt lat="48.13745" lon="6.68011">
        <ele>518.864929</ele>
        <time>2020-10-12T09:38:10.053Z</time>
      </trkpt>
      <trkpt lat="48.13739" lon="6.6801">
        <ele>517.911499</ele>
        <time>2020-10-12T09:38:15.353Z</time>
      </trkpt>
      <trkpt lat="48.13732" lon="6.68009">
        <ele>518.156006</ele>
        <time>2020-10-12T09:38:20.642Z</time>
      </trkpt>
      <trkpt lat="48.13727" lon="6.68009">
        <ele>518.613708</ele>
        <time>2020-10-12T09:38:25.855Z</time>
      </trkpt>
      <trkpt lat="48.13721" lon="6.68009">
        <ele>520.411743</ele>
        <time>2020-10-12T09:38:31.148Z</time>
      </trkpt>
      <trkpt lat="48.13715" lon="6.68009">
        <ele>520.095642</ele>
        <time>2020-10-12T09:38:36.642Z</time>
      </trkpt>
      <trkpt lat="48.1371" lon="6.68009">
        <ele>518.507263</ele>
        <time>2020-10-12T09:38:41.695Z</time>
      </trkpt>
      <trkpt lat="48.13705" lon="6.6801">
        <ele>517.432495</ele>
        <time>2020-10-12T09:38:47.027Z</time>
      </trkpt>
      <trkpt lat="48.13702" lon="6.68006">
        <ele>515.53064</ele>
        <time>2020-10-12T09:38:52.202Z</time>
      </trkpt>
      <trkpt lat="48.13696" lon="6.68003">
        <ele>514.118103</ele>
        <time>2020-10-12T09:38:57.209Z</time>
      </trkpt>
      <trkpt lat="48.13692" lon="6.67999">
        <ele>513.143066</ele>
        <time>2020-10-12T09:39:02.510Z</time>
      </trkpt>
      <trkpt lat="48.13687" lon="6.67993">
        <ele>512.31958</ele>
        <time>2020-10-12T09:39:07.788Z</time>
      </trkpt>
      <trkpt lat="48.13683" lon="6.6799">
        <ele>511.750854</ele>
        <time>2020-10-12T09:39:13.045Z</time>
      </trkpt>
      <trkpt lat="48.13679" lon="6.67989">
        <ele>511.289337</ele>
        <time>2020-10-12T09:39:18.547Z</time>
      </trkpt>
      <trkpt lat="48.13674" lon="6.67987">
        <ele>511.069885</ele>
        <time>2020-10-12T09:39:23.708Z</time>
      </trkpt>
      <trkpt lat="48.1367" lon="6.67978">
        <ele>510.540497</ele>
        <time>2020-10-12T09:39:29.069Z</time>
      </trkpt>
      <trkpt lat="48.13667" lon="6.6797">
        <ele>510.826721</ele>
        <time>2020-10-12T09:39:34.553Z</time>
      </trkpt>
      <trkpt lat="48.13665" lon="6.67963">
        <ele>510.654083</ele>
        <time>2020-10-12T09:39:39.871Z</time>
      </trkpt>
      <trkpt lat="48.13663" lon="6.67954">
        <ele>509.939789</ele>
        <time>2020-10-12T09:39:45.148Z</time>
      </trkpt>
      <trkpt lat="48.1366" lon="6.67946">
        <ele>509.681396</ele>
        <time>2020-10-12T09:39:50.644Z</time>
      </trkpt>
      <trkpt lat="48.13658" lon="6.67939">
        <ele>509.837311</ele>
        <time>2020-10-12T09:39:56.127Z</time>
      </trkpt>
      <trkpt lat="48.13656" lon="6.67931">
        <ele>509.762115</ele>
        <time>2020-10-12T09:40:01.411Z</time>
      </trkpt>
      <trkpt lat="48.13655" lon="6.67925">
        <ele>508.997742</ele>
        <time>2020-10-12T09:40:06.748Z</time>
      </trkpt>
      <trkpt lat="48.13654" lon="6.67919">
        <ele>508.943207</ele>
        <time>2020-10-12T09:40:12.121Z</time>
      </trkpt>
    </trkseg>
  </trk>
</gpx>